Wetterdaten: Donnerstag, 21.08.2014
Datum Zeit Temp. Aussen +5cm Feuchte Auss Luftdruck Regen Sonnenschein Regendauer UV Solar Windben
21.08.2014 00:00 10,4 C 9,4 C 98 % 1016,2 hPa 0,0 l/m 0 min 0 min 0,0 UV-I 0 W/m 0,0 km/h (0 Bft)
21.08.2014 00:02 10,4 C 9,4 C 98 % 1016,2 hPa 0,0 l/m 0 min 0 min 0,0 UV-I 0 W/m 0,0 km/h (0 Bft)
21.08.2014 00:05 10,5 C 9,4 C 98 % 1016,2 hPa 0,0 l/m 0 min 0 min 0,0 UV-I 0 W/m 0,0 km/h (0 Bft)
21.08.2014 00:06 10,5 C 9,4 C 98 % 1016,2 hPa 0,0 l/m 0 min 0 min 0,0 UV-I 0 W/m 0,0 km/h (0 Bft)
21.08.2014 00:08 10,5 C 9,4 C 98 % 1016,1 hPa 0,0 l/m 0 min 0 min 0,0 UV-I 0 W/m 0,0 km/h (0 Bft)
21.08.2014 00:10 10,5 C 9,4 C 98 % 1016,2 hPa 0,0 l/m 0 min 0 min 0,0 UV-I 0 W/m 0,0 km/h (0 Bft)
21.08.2014 00:12 10,4 C 9,4 C 98 % 1016,2 hPa 0,0 l/m 0 min 0 min 0,0 UV-I 0 W/m 0,0 km/h (0 Bft)
21.08.2014 00:14 10,4 C 9,4 C 98 % 1016,1 hPa 0,0 l/m 0 min 0 min 0,0 UV-I 0 W/m 0,0 km/h (0 Bft)
21.08.2014 00:16 10,4 C 9,4 C 98 % 1016,1 hPa 0,0 l/m 0 min 0 min 0,0 UV-I 0 W/m 0,0 km/h (0 Bft)
21.08.2014 00:18 10,4 C 9,4 C 98 % 1016,1 hPa 0,0 l/m 0 min 0 min 0,0 UV-I 0 W/m 7,1 km/h (2 Bft)
21.08.2014 00:20 10,4 C 9,4 C 98 % 1016,1 hPa 0,0 l/m 0 min 0 min 0,0 UV-I 0 W/m 14,2 km/h (3 Bft)
21.08.2014 00:22 10,4 C 9,4 C 98 % 1016,1 hPa 0,0 l/m 0 min 0 min 0,0 UV-I 0 W/m 7,1 km/h (2 Bft)
21.08.2014 00:24 10,4 C 9,4 C 98 % 1016,1 hPa 0,0 l/m 0 min 0 min 0,0 UV-I 0 W/m 10,7 km/h (2 Bft)
21.08.2014 00:26 10,4 C 9,4 C 98 % 1016,1 hPa 0,0 l/m 0 min 0 min 0,0 UV-I 0 W/m 10,7 km/h (2 Bft)
21.08.2014 00:28 10,4 C 9,4 C 98 % 1016,1 hPa 0,0 l/m 0 min 0 min 0,0 UV-I 0 W/m 0,0 km/h (0 Bft)
21.08.2014 00:30 10,4 C 9,4 C 98 % 1016,1 hPa 0,0 l/m 0 min 0 min 0,0 UV-I 0 W/m 3,5 km/h (1 Bft)
21.08.2014 00:32 10,5 C 9,4 C 98 % 1016,1 hPa 0,0 l/m 0 min 0 min 0,0 UV-I 0 W/m 7,1 km/h (2 Bft)
21.08.2014 00:34 10,4 C 8,9 C 98 % 1016,1 hPa 0,0 l/m 0 min 0 min 0,0 UV-I 0 W/m 0,0 km/h (0 Bft)
21.08.2014 00:36 10,4 C 8,9 C 98 % 1016,1 hPa 0,0 l/m 0 min 0 min 0,0 UV-I 0 W/m 0,0 km/h (0 Bft)
21.08.2014 00:38 10,4 C 8,9 C 98 % 1016,2 hPa 0,0 l/m 0 min 0 min 0,0 UV-I 0 W/m 0,0 km/h (0 Bft)
21.08.2014 00:40 10,4 C 9,4 C 98 % 1016,2 hPa 0,0 l/m 0 min 0 min 0,0 UV-I 0 W/m 3,5 km/h (1 Bft)
21.08.2014 00:42 10,3 C 9,4 C 98 % 1016,2 hPa 0,0 l/m 0 min 0 min 0,0 UV-I 0 W/m 10,7 km/h (2 Bft)
21.08.2014 00:44 10,3 C 9,4 C 98 % 1016,2 hPa 0,0 l/m 0 min 0 min 0,0 UV-I 0 W/m 0,0 km/h (0 Bft)
21.08.2014 00:46 10,3 C 9,4 C 98 % 1016,2 hPa 0,0 l/m 0 min 0 min 0,0 UV-I 0 W/m 0,0 km/h (0 Bft)
21.08.2014 00:48 10,3 C 9,4 C 98 % 1016,2 hPa 0,0 l/m 0 min 0 min 0,0 UV-I 0 W/m 0,0 km/h (0 Bft)
21.08.2014 00:50 10,2 C 8,9 C 98 % 1016,2 hPa 0,0 l/m 0 min 0 min 0,0 UV-I 0 W/m 0,0 km/h (0 Bft)
21.08.2014 00:52 10,2 C 8,9 C 98 % 1016,2 hPa 0,0 l/m 0 min 0 min 0,0 UV-I 0 W/m 0,0 km/h (0 Bft)
21.08.2014 00:54 10,1 C 8,9 C 98 % 1016,1 hPa 0,0 l/m 0 min 0 min 0,0 UV-I 0 W/m 0,0 km/h (0 Bft)
21.08.2014 00:56 10,1 C 8,9 C 98 % 1016,2 hPa 0,0 l/m 0 min 0 min 0,0 UV-I 0 W/m 0,0 km/h (0 Bft)
21.08.2014 00:58 10,0 C 8,9 C 98 % 1016,1 hPa 0,0 l/m 0 min 0 min 0,0 UV-I 0 W/m 0,0 km/h (0 Bft)
21.08.2014 01:00 9,9 C 8,9 C 98 % 1016,2 hPa 0,0 l/m 0 min 0 min 0,0 UV-I 0 W/m 0,0 km/h (0 Bft)
21.08.2014 01:02 9,9 C 8,9 C 98 % 1016,3 hPa 0,0 l/m 0 min 0 min 0,0 UV-I 0 W/m 0,0 km/h (0 Bft)
21.08.2014 01:04 9,8 C 8,3 C 98 % 1016,3 hPa 0,0 l/m 0 min 0 min 0,0 UV-I 0 W/m 0,0 km/h (0 Bft)
21.08.2014 01:06 9,8 C 8,3 C 98 % 1016,3 hPa 0,0 l/m 0 min 0 min 0,0 UV-I 0 W/m 0,0 km/h (0 Bft)
21.08.2014 01:08 9,8 C 8,3 C 98 % 1016,3 hPa 0,0 l/m 0 min 0 min 0,0 UV-I 0 W/m 0,0 km/h (0 Bft)
21.08.2014 01:10 9,8 C 8,3 C 98 % 1016,3 hPa 0,0 l/m 0 min 0 min 0,0 UV-I 0 W/m 0,0 km/h (0 Bft)
21.08.2014 01:12 9,7 C 8,3 C 98 % 1016,3 hPa 0,0 l/m 0 min 0 min 0,0 UV-I 0 W/m 0,0 km/h (0 Bft)
21.08.2014 01:14 9,7 C 8,3 C 98 % 1016,3 hPa 0,0 l/m 0 min 0 min 0,0 UV-I 0 W/m 0,0 km/h (0 Bft)
21.08.2014 01:16 9,7 C 8,3 C 98 % 1016,2 hPa 0,0 l/m 0 min 0 min 0,0 UV-I 0 W/m 0,0 km/h (0 Bft)
21.08.2014 01:18 9,7 C 8,3 C 98 % 1016,3 hPa 0,0 l/m 0 min 0 min 0,0 UV-I 0 W/m 0,0 km/h (0 Bft)
21.08.2014 01:20 9,6 C 8,3 C 98 % 1016,2 hPa 0,2 l/m 0 min 0 min 0,0 UV-I 0 W/m 0,0 km/h (0 Bft)
21.08.2014 01:22 9,6 C 8,3 C 98 % 1016,3 hPa 0,0 l/m 0 min 0 min 0,0 UV-I 0 W/m 0,0 km/h (0 Bft)
21.08.2014 01:24 9,6 C 8,3 C 98 % 1016,4 hPa 0,0 l/m 0 min 0 min 0,0 UV-I 0 W/m 3,5 km/h (1 Bft)
21.08.2014 01:26 9,6 C 8,3 C 98 % 1016,3 hPa 0,0 l/m 0 min 0 min 0,0 UV-I 0 W/m 0,0 km/h (0 Bft)
21.08.2014 01:28 9,5 C 8,3 C 98 % 1016,3 hPa 0,0 l/m 0 min 0 min 0,0 UV-I 0 W/m 0,0 km/h (0 Bft)
21.08.2014 01:30 9,5 C 8,3 C 98 % 1016,4 hPa 0,0 l/m 0 min 0 min 0,0 UV-I 0 W/m 0,0 km/h (0 Bft)
21.08.2014 01:32 9,5 C 8,3 C 98 % 1016,4 hPa 0,0 l/m 0 min 0 min 0,0 UV-I 0 W/m 0,0 km/h (0 Bft)
21.08.2014 01:34 9,6 C 8,3 C 98 % 1016,4 hPa 0,0 l/m 0 min 0 min 0,0 UV-I 0 W/m 0,0 km/h (0 Bft)
21.08.2014 01:36 9,6 C 8,3 C 98 % 1016,4 hPa 0,0 l/m 0 min 0 min 0,0 UV-I 0 W/m 0,0 km/h (0 Bft)
21.08.2014 01:38 9,6 C 8,3 C 98 % 1016,4 hPa 0,0 l/m 0 min 0 min 0,0 UV-I 0 W/m 0,0 km/h (0 Bft)
21.08.2014 01:40 9,6 C 8,3 C 98 % 1016,4 hPa 0,0 l/m 0 min 0 min 0,0 UV-I 0 W/m 0,0 km/h (0 Bft)
21.08.2014 01:42 9,5 C 8,3 C 98 % 1016,4 hPa 0,0 l/m 0 min 0 min 0,0 UV-I 0 W/m 0,0 km/h (0 Bft)
21.08.2014 01:44 9,6 C 8,3 C 98 % 1016,4 hPa 0,0 l/m 0 min 0 min 0,0 UV-I 0 W/m 0,0 km/h (0 Bft)
21.08.2014 01:46 9,6 C 8,3 C 98 % 1016,4 hPa 0,0 l/m 0 min 0 min 0,0 UV-I 0 W/m 0,0 km/h (0 Bft)
21.08.2014 01:48 9,6 C 8,3 C 98 % 1016,4 hPa 0,0 l/m 0 min 0 min 0,0 UV-I 0 W/m 0,0 km/h (0 Bft)
21.08.2014 01:50 9,6 C 8,3 C 98 % 1016,4 hPa 0,0 l/m 0 min 0 min 0,0 UV-I 0 W/m 0,0 km/h (0 Bft)
21.08.2014 01:52 9,5 C 8,3 C 98 % 1016,4 hPa 0,0 l/m 0 min 0 min 0,0 UV-I 0 W/m 0,0 km/h (0 Bft)
21.08.2014 01:54 9,4 C 7,8 C 98 % 1016,4 hPa 0,0 l/m 0 min 0 min 0,0 UV-I 0 W/m 0,0 km/h (0 Bft)
21.08.2014 01:56 9,4 C 8,3 C 99 % 1016,4 hPa 0,0 l/m 0 min 0 min 0,0 UV-I 0 W/m 0,0 km/h (0 Bft)
21.08.2014 01:58 9,4 C 8,3 C 99 % 1016,4 hPa 0,0 l/m 0 min 0 min 0,0 UV-I 0 W/m 0,0 km/h (0 Bft)
21.08.2014 02:00 9,3 C 7,8 C 99 % 1016,5 hPa 0,0 l/m 0 min 0 min 0,0 UV-I 0 W/m 0,0 km/h (0 Bft)
21.08.2014 02:02 9,3 C 7,8 C 99 % 1016,5 hPa 0,0 l/m 0 min 0 min 0,0 UV-I 0 W/m 0,0 km/h (0 Bft)
21.08.2014 02:04 9,3 C 7,8 C 99 % 1016,4 hPa 0,0 l/m 0 min 0 min 0,0 UV-I 0 W/m 0,0 km/h (0 Bft)
21.08.2014 02:06 9,3 C 7,8 C 99 % 1016,4 hPa 0,0 l/m 0 min 0 min 0,0 UV-I 0 W/m 0,0 km/h (0 Bft)
21.08.2014 02:08 9,2 C 7,8 C 99 % 1016,4 hPa 0,0 l/m 0 min 0 min 0,0 UV-I 0 W/m 0,0 km/h (0 Bft)
21.08.2014 02:10 9,2 C 7,8 C 98 % 1016,4 hPa 0,0 l/m 0 min 0 min 0,0 UV-I 0 W/m 0,0 km/h (0 Bft)
21.08.2014 02:12 9,2 C 7,8 C 98 % 1016,4 hPa 0,0 l/m 0 min 0 min 0,0 UV-I 0 W/m 0,0 km/h (0 Bft)
21.08.2014 02:14 9,3 C 7,8 C 98 % 1016,4 hPa 0,0 l/m 0 min 0 min 0,0 UV-I 0 W/m 0,0 km/h (0 Bft)
21.08.2014 02:16 9,3 C 7,8 C 98 % 1016,4 hPa 0,0 l/m 0 min 0 min 0,0 UV-I 0 W/m 0,0 km/h (0 Bft)
21.08.2014 02:18 9,3 C 7,8 C 99 % 1016,3 hPa 0,0 l/m 0 min 0 min 0,0 UV-I 0 W/m 0,0 km/h (0 Bft)
21.08.2014 02:20 9,3 C 7,8 C 99 % 1016,3 hPa 0,0 l/m 0 min 0 min 0,0 UV-I 0 W/m 0,0 km/h (0 Bft)
21.08.2014 02:22 9,2 C 7,8 C 98 % 1016,3 hPa 0,0 l/m 0 min 0 min 0,0 UV-I 0 W/m 0,0 km/h (0 Bft)
21.08.2014 02:24 9,2 C 7,8 C 98 % 1016,4 hPa 0,0 l/m 0 min 0 min 0,0 UV-I 0 W/m 0,0 km/h (0 Bft)
21.08.2014 02:26 9,2 C 7,8 C 98 % 1016,3 hPa 0,0 l/m 0 min 0 min 0,0 UV-I 0 W/m 0,0 km/h (0 Bft)
21.08.2014 02:28 9,1 C 7,8 C 98 % 1016,4 hPa 0,0 l/m 0 min 0 min 0,0 UV-I 0 W/m 0,0 km/h (0 Bft)
21.08.2014 02:30 9,1 C 7,8 C 98 % 1016,4 hPa 0,0 l/m 0 min 0 min 0,0 UV-I 0 W/m 0,0 km/h (0 Bft)
21.08.2014 02:32 9,1 C 7,8 C 99 % 1016,4 hPa 0,0 l/m 0 min 0 min 0,0 UV-I 0 W/m 0,0 km/h (0 Bft)
21.08.2014 02:34 9,1 C 7,8 C 99 % 1016,4 hPa 0,0 l/m 0 min 0 min 0,0 UV-I 0 W/m 0,0 km/h (0 Bft)
21.08.2014 02:36 9,0 C 7,8 C 99 % 1016,4 hPa 0,0 l/m 0 min 0 min 0,0 UV-I 0 W/m 0,0 km/h (0 Bft)
21.08.2014 02:38 9,0 C 7,8 C 99 % 1016,4 hPa 0,0 l/m 0 min 0 min 0,0 UV-I 0 W/m 0,0 km/h (0 Bft)
21.08.2014 02:40 8,9 C 7,8 C 99 % 1016,4 hPa 0,0 l/m 0 min 0 min 0,0 UV-I 0 W/m 0,0 km/h (0 Bft)
21.08.2014 02:42 9,0 C 7,8 C 99 % 1016,4 hPa 0,0 l/m 0 min 0 min 0,0 UV-I 0 W/m 0,0 km/h (0 Bft)
21.08.2014 02:44 8,9 C 7,8 C 99 % 1016,4 hPa 0,0 l/m 0 min 0 min 0,0 UV-I 0 W/m 0,0 km/h (0 Bft)
21.08.2014 02:46 8,9 C 7,8 C 98 % 1016,4 hPa 0,0 l/m 0 min 0 min 0,0 UV-I 0 W/m 0,0 km/h (0 Bft)
21.08.2014 02:48 8,9 C 7,8 C 98 % 1016,4 hPa 0,0 l/m 0 min 0 min 0,0 UV-I 0 W/m 0,0 km/h (0 Bft)
21.08.2014 02:50 8,9 C 7,8 C 98 % 1016,4 hPa 0,0 l/m 0 min 0 min 0,0 UV-I 0 W/m 0,0 km/h (0 Bft)
21.08.2014 02:52 8,8 C 7,8 C 98 % 1016,4 hPa 0,0 l/m 0 min 0 min 0,0 UV-I 0 W/m 0,0 km/h (0 Bft)
21.08.2014 02:54 8,8 C 7,8 C 98 % 1016,4 hPa 0,0 l/m 0 min 0 min 0,0 UV-I 0 W/m 0,0 km/h (0 Bft)
21.08.2014 02:56 8,8 C 7,8 C 99 % 1016,4 hPa 0,0 l/m 0 min 0 min 0,0 UV-I 0 W/m 0,0 km/h (0 Bft)
21.08.2014 02:58 8,7 C 7,8 C 99 % 1016,4 hPa 0,0 l/m 0 min 0 min 0,0 UV-I 0 W/m 0,0 km/h (0 Bft)
21.08.2014 03:00 8,7 C 7,8 C 99 % 1016,3 hPa 0,0 l/m 0 min 0 min 0,0 UV-I 0 W/m 0,0 km/h (0 Bft)
21.08.2014 03:02 8,7 C 7,2 C 99 % 1016,4 hPa 0,0 l/m 0 min 0 min 0,0 UV-I 0 W/m 0,0 km/h (0 Bft)
21.08.2014 03:04 8,7 C 7,2 C 99 % 1016,4 hPa 0,0 l/m 0 min 0 min 0,0 UV-I 0 W/m 0,0 km/h (0 Bft)
21.08.2014 03:06 8,6 C 7,2 C 99 % 1016,4 hPa 0,0 l/m 0 min 0 min 0,0 UV-I 0 W/m 0,0 km/h (0 Bft)
21.08.2014 03:08 8,6 C 7,2 C 99 % 1016,4 hPa 0,0 l/m 0 min 0 min 0,0 UV-I 0 W/m 0,0 km/h (0 Bft)
21.08.2014 03:10 8,6 C 7,2 C 99 % 1016,4 hPa 0,0 l/m 0 min 0 min 0,0 UV-I 0 W/m 0,0 km/h (0 Bft)
21.08.2014 03:12 8,6 C 7,2 C 99 % 1016,3 hPa 0,0 l/m 0 min 0 min 0,0 UV-I 0 W/m 0,0 km/h (0 Bft)
21.08.2014 03:14 8,7 C 7,2 C 99 % 1016,3 hPa 0,0 l/m 0 min 0 min 0,0 UV-I 0 W/m 14,2 km/h (3 Bft)
21.08.2014 03:16 8,7 C 7,2 C 99 % 1016,3 hPa 0,0 l/m 0 min 0 min 0,0 UV-I 0 W/m 0,0 km/h (0 Bft)
21.08.2014 03:18 8,7 C 7,2 C 99 % 1016,3 hPa 0,0 l/m 0 min 0 min 0,0 UV-I 0 W/m 0,0 km/h (0 Bft)
21.08.2014 03:20 8,7 C 7,2 C 99 % 1016,3 hPa 0,0 l/m 0 min 0 min 0,0 UV-I 0 W/m 0,0 km/h (0 Bft)
21.08.2014 03:22 8,7 C 7,2 C 99 % 1016,3 hPa 0,0 l/m 0 min 0 min 0,0 UV-I 0 W/m 7,1 km/h (2 Bft)
21.08.2014 03:24 8,7 C 7,8 C 99 % 1016,3 hPa 0,0 l/m 0 min 0 min 0,0 UV-I 0 W/m 0,0 km/h (0 Bft)
21.08.2014 03:26 8,7 C 7,8 C 99 % 1016,3 hPa 0,0 l/m 0 min 0 min 0,0 UV-I 0 W/m 0,0 km/h (0 Bft)
21.08.2014 03:28 8,7 C 7,8 C 99 % 1016,3 hPa 0,0 l/m 0 min 0 min 0,0 UV-I 0 W/m 10,7 km/h (2 Bft)
21.08.2014 03:30 8,8 C 7,8 C 99 % 1016,3 hPa 0,0 l/m 0 min 0 min 0,0 UV-I 0 W/m 0,0 km/h (0 Bft)
21.08.2014 03:32 8,8 C 7,8 C 99 % 1016,3 hPa 0,0 l/m 0 min 0 min 0,0 UV-I 0 W/m 0,0 km/h (0 Bft)
21.08.2014 03:34 8,8 C 7,8 C 99 % 1016,3 hPa 0,0 l/m 0 min 0 min 0,0 UV-I 0 W/m 14,2 km/h (3 Bft)
21.08.2014 03:36 8,9 C 7,8 C 99 % 1016,3 hPa 0,0 l/m 0 min 0 min 0,0 UV-I 0 W/m 10,7 km/h (2 Bft)
21.08.2014 03:38 8,9 C 7,8 C 99 % 1016,3 hPa 0,0 l/m 0 min 0 min 0,0 UV-I 0 W/m 10,7 km/h (2 Bft)
21.08.2014 03:40 8,9 C 7,8 C 99 % 1016,3 hPa 0,0 l/m 0 min 0 min 0,0 UV-I 0 W/m 10,7 km/h (2 Bft)
21.08.2014 03:42 8,8 C 8,3 C 99 % 1016,3 hPa 0,0 l/m 0 min 0 min 0,0 UV-I 0 W/m 10,7 km/h (2 Bft)
21.08.2014 03:44 8,8 C 7,8 C 99 % 1016,3 hPa 0,0 l/m 0 min 0 min 0,0 UV-I 0 W/m 14,2 km/h (3 Bft)
21.08.2014 03:46 8,9 C 8,3 C 99 % 1016,3 hPa 0,0 l/m 0 min 0 min 0,0 UV-I 0 W/m 14,2 km/h (3 Bft)
21.08.2014 03:48 8,9 C 8,3 C 99 % 1016,3 hPa 0,0 l/m 0 min 0 min 0,0 UV-I 0 W/m 14,2 km/h (3 Bft)
21.08.2014 03:50 8,9 C 8,3 C 99 % 1016,3 hPa 0,0 l/m 0 min 0 min 0,0 UV-I 0 W/m 14,2 km/h (3 Bft)
21.08.2014 03:52 8,9 C 8,3 C 99 % 1016,3 hPa 0,0 l/m 0 min 0 min 0,0 UV-I 0 W/m 10,7 km/h (2 Bft)
21.08.2014 03:54 8,9 C 7,8 C 99 % 1016,2 hPa 0,0 l/m 0 min 0 min 0,0 UV-I 0 W/m 10,7 km/h (2 Bft)
21.08.2014 03:56 8,9 C 7,8 C 99 % 1016,3 hPa 0,0 l/m 0 min 0 min 0,0 UV-I 0 W/m 3,5 km/h (1 Bft)
21.08.2014 03:58 8,8 C 7,8 C 99 % 1016,3 hPa 0,0 l/m 0 min 0 min 0,0 UV-I 0 W/m 7,1 km/h (2 Bft)
21.08.2014 04:00 8,8 C 7,8 C 99 % 1016,2 hPa 0,0 l/m 0 min 0 min 0,0 UV-I 0 W/m 3,5 km/h (1 Bft)
21.08.2014 04:02 8,9 C 7,8 C 99 % 1016,2 hPa 0,0 l/m 0 min 0 min 0,0 UV-I 0 W/m 0,0 km/h (0 Bft)
21.08.2014 04:04 8,9 C 7,8 C 99 % 1016,2 hPa 0,0 l/m 0 min 0 min 0,0 UV-I 0 W/m 0,0 km/h (0 Bft)
21.08.2014 04:06 8,8 C 7,8 C 99 % 1016,2 hPa 0,0 l/m 0 min 0 min 0,0 UV-I 0 W/m 10,7 km/h (2 Bft)
21.08.2014 04:08 8,8 C 7,8 C 99 % 1016,2 hPa 0,0 l/m 0 min 0 min 0,0 UV-I 0 W/m 14,2 km/h (3 Bft)
21.08.2014 04:10 8,8 C 8,3 C 99 % 1016,2 hPa 0,0 l/m 0 min 0 min 0,0 UV-I 0 W/m 7,1 km/h (2 Bft)
21.08.2014 04:12 8,8 C 7,8 C 99 % 1016,2 hPa 0,0 l/m 0 min 0 min 0,0 UV-I 0 W/m 0,0 km/h (0 Bft)
21.08.2014 04:14 8,8 C 7,8 C 99 % 1016,2 hPa 0,0 l/m 0 min 0 min 0,0 UV-I 0 W/m 0,0 km/h (0 Bft)
21.08.2014 04:16 8,8 C 7,8 C 99 % 1016,3 hPa 0,0 l/m 0 min 0 min 0,0 UV-I 0 W/m 10,7 km/h (2 Bft)
21.08.2014 04:18 8,8 C 7,8 C 99 % 1016,3 hPa 0,0 l/m 0 min 0 min 0,0 UV-I 0 W/m 7,1 km/h (2 Bft)
21.08.2014 04:20 8,8 C 7,8 C 99 % 1016,3 hPa 0,0 l/m 0 min 0 min 0,0 UV-I 0 W/m 10,7 km/h (2 Bft)
21.08.2014 04:22 8,8 C 7,8 C 99 % 1016,3 hPa 0,0 l/m 0 min 0 min 0,0 UV-I 0 W/m 14,2 km/h (3 Bft)
21.08.2014 04:24 8,8 C 8,3 C 99 % 1016,3 hPa 0,0 l/m 0 min 0 min 0,0 UV-I 0 W/m 14,2 km/h (3 Bft)
21.08.2014 04:26 8,9 C 8,3 C 99 % 1016,3 hPa 0,0 l/m 0 min 0 min 0,0 UV-I 0 W/m 17,7 km/h (3 Bft)
21.08.2014 04:28 8,9 C 8,3 C 99 % 1016,3 hPa 0,0 l/m 0 min 0 min 0,0 UV-I 0 W/m 17,7 km/h (3 Bft)
21.08.2014 04:30 8,9 C 8,3 C 99 % 1016,3 hPa 0,0 l/m 0 min 0 min 0,0 UV-I 0 W/m 14,2 km/h (3 Bft)
21.08.2014 04:32 8,9 C 8,3 C 99 % 1016,4 hPa 0,0 l/m 0 min 0 min 0,0 UV-I 0 W/m 14,2 km/h (3 Bft)
21.08.2014 04:34 8,9 C 8,3 C 99 % 1016,3 hPa 0,0 l/m 0 min 0 min 0,0 UV-I 0 W/m 10,7 km/h (2 Bft)
21.08.2014 04:36 8,9 C 8,3 C 99 % 1016,2 hPa 0,0 l/m 0 min 0 min 0,0 UV-I 0 W/m 14,2 km/h (3 Bft)
21.08.2014 04:38 8,9 C 8,3 C 99 % 1016,3 hPa 0,0 l/m 0 min 0 min 0,0 UV-I 0 W/m 14,2 km/h (3 Bft)
21.08.2014 04:40 8,8 C 7,8 C 99 % 1016,3 hPa 0,0 l/m 0 min 0 min 0,0 UV-I 0 W/m 0,0 km/h (0 Bft)
21.08.2014 04:42 8,8 C 7,8 C 99 % 1016,3 hPa 0,0 l/m 0 min 0 min 0,0 UV-I 0 W/m 0,0 km/h (0 Bft)
21.08.2014 04:44 8,8 C 7,8 C 99 % 1016,3 hPa 0,0 l/m 0 min 0 min 0,0 UV-I 0 W/m 0,0 km/h (0 Bft)
21.08.2014 04:46 8,7 C 7,8 C 99 % 1016,3 hPa 0,0 l/m 0 min 0 min 0,0 UV-I 0 W/m 7,1 km/h (2 Bft)
21.08.2014 04:48 8,7 C 7,8 C 99 % 1016,2 hPa 0,0 l/m 0 min 0 min 0,0 UV-I 0 W/m 0,0 km/h (0 Bft)
21.08.2014 04:50 8,7 C 7,8 C 99 % 1016,2 hPa 0,0 l/m 0 min 0 min 0,0 UV-I 0 W/m 10,7 km/h (2 Bft)
21.08.2014 04:52 8,7 C 7,8 C 99 % 1016,3 hPa 0,0 l/m 0 min 0 min 0,0 UV-I 0 W/m 0,0 km/h (0 Bft)
21.08.2014 04:54 8,7 C 7,8 C 99 % 1016,2 hPa 0,0 l/m 0 min 0 min 0,0 UV-I 0 W/m 0,0 km/h (0 Bft)
21.08.2014 04:56 8,7 C 7,8 C 99 % 1016,3 hPa 0,0 l/m 0 min 0 min 0,0 UV-I 0 W/m 10,7 km/h (2 Bft)
21.08.2014 04:58 8,7 C 7,8 C 99 % 1016,2 hPa 0,0 l/m 0 min 0 min 0,0 UV-I 0 W/m 0,0 km/h (0 Bft)
21.08.2014 05:00 8,6 C 7,8 C 99 % 1016,2 hPa 0,0 l/m 0 min 0 min 0,0 UV-I 0 W/m 14,2 km/h (3 Bft)
21.08.2014 05:02 8,6 C 7,8 C 99 % 1016,3 hPa 0,0 l/m 0 min 0 min 0,0 UV-I 0 W/m 14,2 km/h (3 Bft)
21.08.2014 05:04 8,7 C 7,8 C 99 % 1016,2 hPa 0,0 l/m 0 min 0 min 0,0 UV-I 0 W/m 7,1 km/h (2 Bft)
21.08.2014 05:06 8,6 C 7,8 C 99 % 1016,2 hPa 0,0 l/m 0 min 0 min 0,0 UV-I 0 W/m 7,1 km/h (2 Bft)
21.08.2014 05:08 8,7 C 7,8 C 99 % 1016,2 hPa 0,0 l/m 0 min 0 min 0,0 UV-I 0 W/m 14,2 km/h (3 Bft)
21.08.2014 05:10 8,7 C 7,8 C 99 % 1016,2 hPa 0,0 l/m 0 min 0 min 0,0 UV-I 0 W/m 14,2 km/h (3 Bft)
21.08.2014 05:12 8,7 C 7,8 C 99 % 1016,2 hPa 0,0 l/m 0 min 0 min 0,0 UV-I 0 W/m 10,7 km/h (2 Bft)
21.08.2014 05:14 8,6 C 7,8 C 99 % 1016,2 hPa 0,0 l/m 0 min 0 min 0,0 UV-I 0 W/m 10,7 km/h (2 Bft)
21.08.2014 05:16 8,6 C 7,8 C 99 % 1016,1 hPa 0,0 l/m 0 min 0 min 0,0 UV-I 0 W/m 0,0 km/h (0 Bft)
21.08.2014 05:18 8,6 C 7,8 C 99 % 1016,1 hPa 0,0 l/m 0 min 0 min 0,0 UV-I 0 W/m 14,2 km/h (3 Bft)
21.08.2014 05:20 8,6 C 7,8 C 99 % 1016,2 hPa 0,0 l/m 0 min 0 min 0,0 UV-I 0 W/m 14,2 km/h (3 Bft)
21.08.2014 05:22 8,6 C 7,8 C 99 % 1016,1 hPa 0,0 l/m 0 min 0 min 0,0 UV-I 0 W/m 14,2 km/h (3 Bft)
21.08.2014 05:24 8,6 C 7,8 C 99 % 1016,1 hPa 0,0 l/m 0 min 0 min 0,0 UV-I 0 W/m 17,7 km/h (3 Bft)
21.08.2014 05:26 8,6 C 7,8 C 99 % 1016,1 hPa 0,0 l/m 0 min 0 min 0,0 UV-I 0 W/m 14,2 km/h (3 Bft)
21.08.2014 05:28 8,6 C 7,8 C 99 % 1016,1 hPa 0,0 l/m 0 min 0 min 0,0 UV-I 0 W/m 7,1 km/h (2 Bft)
21.08.2014 05:30 8,6 C 7,8 C 99 % 1016,1 hPa 0,0 l/m 0 min 0 min 0,0 UV-I 0 W/m 17,7 km/h (3 Bft)
21.08.2014 05:32 8,6 C 7,8 C 99 % 1016,1 hPa 0,0 l/m 0 min 0 min 0,0 UV-I 0 W/m 10,7 km/h (2 Bft)
21.08.2014 05:34 8,5 C 7,8 C 99 % 1016,1 hPa 0,0 l/m 0 min 0 min 0,0 UV-I 0 W/m 7,1 km/h (2 Bft)
21.08.2014 05:36 8,6 C 7,8 C 99 % 1016,1 hPa 0,0 l/m 0 min 0 min 0,0 UV-I 0 W/m 3,5 km/h (1 Bft)
21.08.2014 05:38 8,6 C 7,8 C 99 % 1016,0 hPa 0,0 l/m 0 min 0 min 0,0 UV-I 0 W/m 14,2 km/h (3 Bft)
21.08.2014 05:40 8,6 C 7,8 C 99 % 1016,0 hPa 0,0 l/m 0 min 0 min 0,0 UV-I 0 W/m 14,2 km/h (3 Bft)
21.08.2014 05:42 8,6 C 7,8 C 99 % 1016,0 hPa 0,0 l/m 0 min 0 min 0,0 UV-I 0 W/m 10,7 km/h (2 Bft)
21.08.2014 05:44 8,6 C 7,8 C 99 % 1016,1 hPa 0,0 l/m 0 min 0 min 0,0 UV-I 0 W/m 14,2 km/h (3 Bft)
21.08.2014 05:46 8,6 C 7,8 C 99 % 1016,0 hPa 0,0 l/m 0 min 0 min 0,0 UV-I 0 W/m 17,7 km/h (3 Bft)
21.08.2014 05:48 8,6 C 7,8 C 99 % 1016,0 hPa 0,0 l/m 0 min 0 min 0,0 UV-I 0 W/m 17,7 km/h (3 Bft)
21.08.2014 05:50 8,6 C 7,8 C 99 % 1016,1 hPa 0,0 l/m 0 min 0 min 0,0 UV-I 0 W/m 0,0 km/h (0 Bft)
21.08.2014 05:52 8,7 C 7,8 C 99 % 1016,0 hPa 0,0 l/m 0 min 0 min 0,0 UV-I 0 W/m 17,7 km/h (3 Bft)
21.08.2014 05:54 8,7 C 7,8 C 99 % 1016,1 hPa 0,0 l/m 0 min 0 min 0,0 UV-I 0 W/m 14,2 km/h (3 Bft)
21.08.2014 05:56 8,7 C 7,8 C 99 % 1016,1 hPa 0,0 l/m 0 min 0 min 0,0 UV-I 0 W/m 17,7 km/h (3 Bft)
21.08.2014 05:58 8,7 C 7,8 C 99 % 1016,1 hPa 0,0 l/m 0 min 0 min 0,0 UV-I 0 W/m 14,2 km/h (3 Bft)
21.08.2014 06:00 8,7 C 7,8 C 99 % 1016,0 hPa 0,0 l/m 0 min 0 min 0,0 UV-I 0 W/m 14,2 km/h (3 Bft)
21.08.2014 06:02 8,7 C 7,8 C 99 % 1016,1 hPa 0,0 l/m 0 min 0 min 0,0 UV-I 0 W/m 14,2 km/h (3 Bft)
21.08.2014 06:06 8,7 C 7,8 C 99 % 1016,1 hPa 0,0 l/m 0 min 0 min 0,0 UV-I 0 W/m 10,7 km/h (2 Bft)
21.08.2014 06:08 8,7 C 7,8 C 99 % 1016,1 hPa 0,0 l/m 0 min 0 min 0,0 UV-I 0 W/m 14,2 km/h (3 Bft)
21.08.2014 06:10 8,7 C 7,8 C 99 % 1016,2 hPa 0,0 l/m 0 min 0 min 0,0 UV-I 0 W/m 10,7 km/h (2 Bft)
21.08.2014 06:12 8,7 C 7,8 C 99 % 1016,2 hPa 0,0 l/m 0 min 0 min 0,0 UV-I 0 W/m 14,2 km/h (3 Bft)
21.08.2014 06:14 8,7 C 7,8 C 99 % 1016,2 hPa 0,0 l/m 0 min 0 min 0,0 UV-I 0 W/m 0,0 km/h (0 Bft)
21.08.2014 06:16 8,7 C 7,8 C 99 % 1016,2 hPa 0,0 l/m 0 min 0 min 0,0 UV-I 0 W/m 10,7 km/h (2 Bft)
21.08.2014 06:18 8,6 C 7,8 C 99 % 1016,1 hPa 0,0 l/m 0 min 0 min 0,0 UV-I 0 W/m 10,7 km/h (2 Bft)
21.08.2014 06:20 8,6 C 7,8 C 99 % 1016,2 hPa 0,0 l/m 0 min 0 min 0,0 UV-I 0 W/m 7,1 km/h (2 Bft)
21.08.2014 06:22 8,6 C 7,8 C 99 % 1016,2 hPa 0,0 l/m 0 min 0 min 0,0 UV-I 0 W/m 3,5 km/h (1 Bft)
21.08.2014 06:24 8,5 C 7,8 C 98 % 1016,1 hPa 0,0 l/m 0 min 0 min 0,0 UV-I 0 W/m 17,7 km/h (3 Bft)
21.08.2014 06:26 8,5 C 7,8 C 99 % 1016,2 hPa 0,0 l/m 0 min 0 min 0,0 UV-I 0 W/m 10,7 km/h (2 Bft)
21.08.2014 06:28 8,5 C 7,8 C 98 % 1016,2 hPa 0,0 l/m 0 min 0 min 0,0 UV-I 0 W/m 14,2 km/h (3 Bft)
21.08.2014 06:30 8,5 C 7,8 C 98 % 1016,2 hPa 0,0 l/m 0 min 0 min 0,0 UV-I 0 W/m 21,3 km/h (4 Bft)
21.08.2014 06:32 8,5 C 7,8 C 98 % 1016,2 hPa 0,0 l/m 0 min 0 min 0,0 UV-I 0 W/m 14,2 km/h (3 Bft)
21.08.2014 06:34 8,6 C 7,8 C 98 % 1016,2 hPa 0,0 l/m 0 min 0 min 0,0 UV-I 0 W/m 10,7 km/h (2 Bft)
21.08.2014 06:36 8,6 C 7,8 C 98 % 1016,2 hPa 0,0 l/m 0 min 0 min 0,0 UV-I 8 W/m 10,7 km/h (2 Bft)
21.08.2014 06:38 8,5 C 7,8 C 98 % 1016,2 hPa 0,0 l/m 0 min 0 min 0,0 UV-I 10 W/m 14,2 km/h (3 Bft)
21.08.2014 06:40 8,6 C 7,8 C 98 % 1016,3 hPa 0,0 l/m 0 min 0 min 0,0 UV-I 11 W/m 10,7 km/h (2 Bft)
21.08.2014 06:42 8,6 C 7,8 C 98 % 1016,2 hPa 0,0 l/m 2 min 0 min 0,0 UV-I 13 W/m 0,0 km/h (0 Bft)
21.08.2014 06:44 8,6 C 7,8 C 98 % 1016,2 hPa 0,0 l/m 2 min 0 min 0,0 UV-I 15 W/m 10,7 km/h (2 Bft)
21.08.2014 06:46 8,6 C 7,8 C 98 % 1016,2 hPa 0,0 l/m 2 min 0 min 0,0 UV-I 17 W/m 14,2 km/h (3 Bft)
21.08.2014 06:48 8,6 C 7,8 C 98 % 1016,2 hPa 0,0 l/m 2 min 0 min 0,0 UV-I 18 W/m 14,2 km/h (3 Bft)
21.08.2014 06:50 8,6 C 7,8 C 98 % 1016,2 hPa 0,0 l/m 2 min 0 min 0,0 UV-I 20 W/m 17,7 km/h (3 Bft)
21.08.2014 06:52 8,6 C 7,8 C 98 % 1016,2 hPa 0,0 l/m 0 min 0 min 0,0 UV-I 21 W/m 21,3 km/h (4 Bft)
21.08.2014 06:54 8,6 C 7,8 C 99 % 1016,2 hPa 0,0 l/m 0 min 0 min 0,0 UV-I 23 W/m 17,7 km/h (3 Bft)
21.08.2014 06:56 8,6 C 7,8 C 99 % 1016,2 hPa 0,0 l/m 0 min 0 min 0,0 UV-I 25 W/m 14,2 km/h (3 Bft)
21.08.2014 06:58 8,6 C 7,8 C 99 % 1016,2 hPa 0,0 l/m 0 min 0 min 0,0 UV-I 26 W/m 10,7 km/h (2 Bft)
21.08.2014 07:00 8,6 C 7,8 C 99 % 1016,3 hPa 0,0 l/m 0 min 0 min 0,0 UV-I 28 W/m 10,7 km/h (2 Bft)
21.08.2014 07:02 8,6 C 7,8 C 99 % 1016,3 hPa 0,0 l/m 0 min 0 min 0,0 UV-I 33 W/m 10,7 km/h (2 Bft)
21.08.2014 07:04 8,6 C 7,8 C 98 % 1016,3 hPa 0,0 l/m 2 min 0 min 0,0 UV-I 38 W/m 10,7 km/h (2 Bft)
21.08.2014 07:06 8,6 C 7,8 C 99 % 1016,3 hPa 0,0 l/m 2 min 0 min 0,0 UV-I 40 W/m 14,2 km/h (3 Bft)
21.08.2014 07:08 8,6 C 7,8 C 99 % 1016,3 hPa 0,0 l/m 2 min 0 min 0,0 UV-I 44 W/m 14,2 km/h (3 Bft)
21.08.2014 07:10 8,6 C 7,8 C 99 % 1016,3 hPa 0,0 l/m 2 min 0 min 0,0 UV-I 46 W/m 17,7 km/h (3 Bft)
21.08.2014 07:12 8,6 C 7,8 C 99 % 1016,2 hPa 0,0 l/m 2 min 0 min 0,0 UV-I 52 W/m 17,7 km/h (3 Bft)
21.08.2014 07:14 8,6 C 7,8 C 99 % 1016,2 hPa 0,0 l/m 2 min 0 min 0,0 UV-I 57 W/m 0,0 km/h (0 Bft)
21.08.2014 07:16 8,7 C 7,8 C 99 % 1016,3 hPa 0,0 l/m 2 min 0 min 0,0 UV-I 67 W/m 17,7 km/h (3 Bft)
21.08.2014 07:18 8,7 C 7,8 C 99 % 1016,3 hPa 0,0 l/m 2 min 0 min 0,0 UV-I 74 W/m 24,7 km/h (4 Bft)
21.08.2014 07:20 8,7 C 7,8 C 99 % 1016,2 hPa 0,0 l/m 2 min 0 min 0,0 UV-I 78 W/m 17,7 km/h (3 Bft)
21.08.2014 07:22 8,7 C 7,8 C 99 % 1016,3 hPa 0,0 l/m 2 min 0 min 0,0 UV-I 81 W/m 10,7 km/h (2 Bft)
21.08.2014 07:24 8,8 C 7,8 C 99 % 1016,2 hPa 0,0 l/m 2 min 0 min 0,0 UV-I 84 W/m 17,7 km/h (3 Bft)
21.08.2014 07:26 8,8 C 7,8 C 98 % 1016,2 hPa 0,0 l/m 2 min 0 min 0,0 UV-I 88 W/m 10,7 km/h (2 Bft)
21.08.2014 07:28 8,8 C 8,3 C 98 % 1016,2 hPa 0,0 l/m 2 min 0 min 0,0 UV-I 91 W/m 3,5 km/h (1 Bft)
21.08.2014 07:30 8,9 C 8,3 C 98 % 1016,2 hPa 0,0 l/m 2 min 0 min 0,0 UV-I 94 W/m 14,2 km/h (3 Bft)
21.08.2014 07:32 8,9 C 8,3 C 98 % 1016,3 hPa 0,0 l/m 2 min 0 min 0,0 UV-I 98 W/m 17,7 km/h (3 Bft)
21.08.2014 07:34 9,0 C 8,3 C 99 % 1016,2 hPa 0,0 l/m 2 min 0 min 0,0 UV-I 103 W/m 21,3 km/h (4 Bft)
21.08.2014 07:36 9,0 C 8,3 C 99 % 1016,2 hPa 0,0 l/m 2 min 0 min 0,0 UV-I 107 W/m 17,7 km/h (3 Bft)
21.08.2014 07:38 9,1 C 8,3 C 99 % 1016,3 hPa 0,0 l/m 2 min 0 min 0,0 UV-I 113 W/m 21,3 km/h (4 Bft)
21.08.2014 07:40 9,1 C 8,3 C 99 % 1016,3 hPa 0,0 l/m 2 min 0 min 0,0 UV-I 117 W/m 17,7 km/h (3 Bft)
21.08.2014 07:42 9,1 C 8,3 C 98 % 1016,3 hPa 0,0 l/m 2 min 0 min 0,0 UV-I 120 W/m 17,7 km/h (3 Bft)
21.08.2014 07:44 9,1 C 8,3 C 98 % 1016,4 hPa 0,0 l/m 2 min 0 min 0,0 UV-I 121 W/m 14,2 km/h (3 Bft)
21.08.2014 07:46 9,1 C 8,3 C 98 % 1016,4 hPa 0,0 l/m 2 min 0 min 0,0 UV-I 123 W/m 10,7 km/h (2 Bft)
21.08.2014 07:48 9,2 C 8,3 C 98 % 1016,5 hPa 0,0 l/m 2 min 0 min 0,0 UV-I 126 W/m 14,2 km/h (3 Bft)
21.08.2014 07:50 9,2 C 8,3 C 98 % 1016,5 hPa 0,0 l/m 2 min 0 min 0,0 UV-I 129 W/m 17,7 km/h (3 Bft)
21.08.2014 07:52 9,2 C 8,3 C 98 % 1016,3 hPa 0,0 l/m 2 min 0 min 0,0 UV-I 132 W/m 14,2 km/h (3 Bft)
21.08.2014 07:54 9,2 C 8,9 C 98 % 1016,3 hPa 0,0 l/m 2 min 0 min 0,0 UV-I 131 W/m 14,2 km/h (3 Bft)
21.08.2014 07:56 9,3 C 8,9 C 98 % 1016,3 hPa 0,0 l/m 2 min 0 min 0,0 UV-I 135 W/m 14,2 km/h (3 Bft)
21.08.2014 07:58 9,3 C 8,9 C 99 % 1016,3 hPa 0,0 l/m 2 min 0 min 0,0 UV-I 143 W/m 3,5 km/h (1 Bft)
21.08.2014 08:00 9,3 C 8,9 C 99 % 1016,3 hPa 0,0 l/m 2 min 0 min 0,0 UV-I 151 W/m 17,7 km/h (3 Bft)
21.08.2014 08:02 9,4 C 8,9 C 99 % 1016,3 hPa 0,0 l/m 2 min 0 min 0,0 UV-I 158 W/m 17,7 km/h (3 Bft)
21.08.2014 08:04 9,4 C 8,9 C 99 % 1016,3 hPa 0,0 l/m 2 min 0 min 0,0 UV-I 165 W/m 10,7 km/h (2 Bft)
21.08.2014 08:06 9,4 C 8,9 C 98 % 1016,3 hPa 0,0 l/m 2 min 0 min 0,0 UV-I 175 W/m 21,3 km/h (4 Bft)
21.08.2014 08:08 9,5 C 8,9 C 98 % 1016,3 hPa 0,0 l/m 2 min 0 min 0,0 UV-I 177 W/m 17,7 km/h (3 Bft)
21.08.2014 08:10 9,6 C 8,9 C 98 % 1016,3 hPa 0,0 l/m 2 min 0 min 0,0 UV-I 183 W/m 14,2 km/h (3 Bft)
21.08.2014 08:12 9,7 C 8,9 C 99 % 1016,4 hPa 0,0 l/m 2 min 0 min 0,0 UV-I 186 W/m 17,7 km/h (3 Bft)
21.08.2014 08:14 9,7 C 8,9 C 99 % 1016,4 hPa 0,0 l/m 2 min 0 min 0,0 UV-I 189 W/m 10,7 km/h (2 Bft)
21.08.2014 08:16 9,7 C 8,9 C 99 % 1016,5 hPa 0,0 l/m 2 min 0 min 0,0 UV-I 192 W/m 14,2 km/h (3 Bft)
21.08.2014 08:18 9,8 C 8,9 C 99 % 1016,4 hPa 0,0 l/m 2 min 0 min 0,0 UV-I 197 W/m 14,2 km/h (3 Bft)
21.08.2014 08:20 9,8 C 8,9 C 98 % 1016,4 hPa 0,0 l/m 2 min 0 min 0,0 UV-I 207 W/m 21,3 km/h (4 Bft)
21.08.2014 08:22 9,9 C 8,9 C 98 % 1016,4 hPa 0,0 l/m 2 min 0 min 0,0 UV-I 211 W/m 14,2 km/h (3 Bft)
21.08.2014 08:24 9,9 C 9,4 C 98 % 1016,4 hPa 0,0 l/m 2 min 0 min 0,0 UV-I 209 W/m 17,7 km/h (3 Bft)
21.08.2014 08:26 10,0 C 9,4 C 99 % 1016,4 hPa 0,0 l/m 2 min 0 min 0,0 UV-I 215 W/m 14,2 km/h (3 Bft)
21.08.2014 08:28 10,1 C 9,4 C 98 % 1016,4 hPa 0,0 l/m 2 min 0 min 0,0 UV-I 223 W/m 10,7 km/h (2 Bft)
21.08.2014 08:30 10,1 C 9,4 C 98 % 1016,5 hPa 0,0 l/m 2 min 0 min 0,0 UV-I 229 W/m 17,7 km/h (3 Bft)
21.08.2014 08:32 10,1 C 9,4 C 98 % 1016,5 hPa 0,0 l/m 2 min 0 min 0,0 UV-I 235 W/m 14,2 km/h (3 Bft)
21.08.2014 08:34 10,2 C 9,4 C 98 % 1016,5 hPa 0,0 l/m 2 min 0 min 0,0 UV-I 243 W/m 21,3 km/h (4 Bft)
21.08.2014 08:36 10,2 C 9,4 C 98 % 1016,5 hPa 0,0 l/m 2 min 0 min 0,0 UV-I 252 W/m 14,2 km/h (3 Bft)
21.08.2014 08:38 10,3 C 9,4 C 98 % 1016,5 hPa 0,0 l/m 2 min 0 min 0,0 UV-I 259 W/m 14,2 km/h (3 Bft)
21.08.2014 08:40 10,3 C 9,4 C 98 % 1016,5 hPa 0,0 l/m 2 min 0 min 0,0 UV-I 268 W/m 10,7 km/h (2 Bft)
21.08.2014 08:42 10,4 C 9,4 C 98 % 1016,6 hPa 0,0 l/m 2 min 0 min 0,0 UV-I 273 W/m 17,7 km/h (3 Bft)
21.08.2014 08:44 10,4 C 9,4 C 98 % 1016,5 hPa 0,0 l/m 2 min 0 min 0,0 UV-I 279 W/m 21,3 km/h (4 Bft)
21.08.2014 08:46 10,5 C 9,4 C 98 % 1016,6 hPa 0,0 l/m 2 min 0 min 0,0 UV-I 284 W/m 14,2 km/h (3 Bft)
21.08.2014 08:48 10,6 C 9,4 C 98 % 1016,6 hPa 0,0 l/m 2 min 0 min 0,0 UV-I 289 W/m 21,3 km/h (4 Bft)
21.08.2014 08:50 10,6 C 9,4 C 98 % 1016,6 hPa 0,0 l/m 2 min 0 min 0,0 UV-I 291 W/m 17,7 km/h (3 Bft)
21.08.2014 08:52 10,7 C 10,0 C 98 % 1016,6 hPa 0,0 l/m 2 min 0 min 0,0 UV-I 299 W/m 17,7 km/h (3 Bft)
21.08.2014 08:54 10,8 C 10,0 C 98 % 1016,7 hPa 0,0 l/m 2 min 0 min 0,0 UV-I 302 W/m 10,7 km/h (2 Bft)
21.08.2014 08:56 10,9 C 10,0 C 98 % 1016,6 hPa 0,0 l/m 2 min 0 min 0,0 UV-I 306 W/m 14,2 km/h (3 Bft)
21.08.2014 08:58 10,9 C 10,0 C 98 % 1016,6 hPa 0,0 l/m 2 min 0 min 0,0 UV-I 309 W/m 17,7 km/h (3 Bft)
21.08.2014 09:00 11,0 C 10,0 C 98 % 1016,6 hPa 0,0 l/m 2 min 0 min 0,0 UV-I 314 W/m 10,7 km/h (2 Bft)
21.08.2014 09:02 11,1 C 10,0 C 98 % 1016,6 hPa 0,0 l/m 2 min 0 min 0,0 UV-I 327 W/m 3,5 km/h (1 Bft)
21.08.2014 09:04 11,2 C 10,0 C 98 % 1016,6 hPa 0,0 l/m 2 min 0 min 0,0 UV-I 333 W/m 14,2 km/h (3 Bft)
21.08.2014 09:06 11,2 C 10,0 C 98 % 1016,6 hPa 0,0 l/m 2 min 0 min 0,0 UV-I 337 W/m 14,2 km/h (3 Bft)
21.08.2014 09:08 11,3 C 10,0 C 98 % 1016,6 hPa 0,0 l/m 2 min 0 min 0,0 UV-I 346 W/m 7,1 km/h (2 Bft)
21.08.2014 09:10 11,4 C 10,0 C 97 % 1016,6 hPa 0,0 l/m 2 min 0 min 0,0 UV-I 349 W/m 17,7 km/h (3 Bft)
21.08.2014 09:12 11,4 C 10,0 C 97 % 1016,6 hPa 0,0 l/m 2 min 0 min 0,0 UV-I 353 W/m 17,7 km/h (3 Bft)
21.08.2014 09:14 11,5 C 10,0 C 97 % 1016,6 hPa 0,0 l/m 2 min 0 min 0,0 UV-I 358 W/m 14,2 km/h (3 Bft)
21.08.2014 09:16 11,6 C 10,6 C 97 % 1016,6 hPa 0,0 l/m 2 min 0 min 0,0 UV-I 367 W/m 17,7 km/h (3 Bft)
21.08.2014 09:18 11,7 C 10,6 C 97 % 1016,6 hPa 0,0 l/m 2 min 0 min 0,4 UV-I 373 W/m 24,7 km/h (4 Bft)
21.08.2014 09:20 11,7 C 10,6 C 97 % 1016,6 hPa 0,0 l/m 2 min 0 min 0,5 UV-I 373 W/m 17,7 km/h (3 Bft)
21.08.2014 09:22 11,8 C 10,6 C 96 % 1016,6 hPa 0,0 l/m 2 min 0 min 0,5 UV-I 377 W/m 24,7 km/h (4 Bft)
21.08.2014 09:24 11,8 C 10,6 C 96 % 1016,6 hPa 0,0 l/m 2 min 0 min 0,5 UV-I 380 W/m 17,7 km/h (3 Bft)
21.08.2014 09:26 11,9 C 10,6 C 96 % 1016,6 hPa 0,0 l/m 2 min 0 min 0,6 UV-I 388 W/m 17,7 km/h (3 Bft)
21.08.2014 09:28 12,0 C 10,6 C 95 % 1016,7 hPa 0,0 l/m 2 min 0 min 0,6 UV-I 392 W/m 7,1 km/h (2 Bft)
21.08.2014 09:30 12,1 C 10,6 C 95 % 1016,6 hPa 0,0 l/m 2 min 0 min 0,6 UV-I 396 W/m 17,7 km/h (3 Bft)
21.08.2014 09:32 12,3 C 10,6 C 95 % 1016,7 hPa 0,0 l/m 2 min 0 min 0,7 UV-I 400 W/m 14,2 km/h (3 Bft)
21.08.2014 09:34 12,3 C 10,6 C 94 % 1016,7 hPa 0,0 l/m 2 min 0 min 0,7 UV-I 388 W/m 14,2 km/h (3 Bft)
21.08.2014 09:36 12,4 C 10,6 C 94 % 1016,7 hPa 0,0 l/m 2 min 0 min 0,7 UV-I 406 W/m 10,7 km/h (2 Bft)
21.08.2014 09:38 12,4 C 11,1 C 93 % 1016,7 hPa 0,0 l/m 2 min 0 min 0,8 UV-I 423 W/m 21,3 km/h (4 Bft)
21.08.2014 09:40 12,4 C 11,1 C 92 % 1016,7 hPa 0,0 l/m 2 min 0 min 0,8 UV-I 423 W/m 14,2 km/h (3 Bft)
21.08.2014 09:42 12,4 C 11,1 C 92 % 1016,6 hPa 0,0 l/m 2 min 0 min 0,8 UV-I 430 W/m 17,7 km/h (3 Bft)
21.08.2014 09:44 12,5 C 11,7 C 92 % 1016,7 hPa 0,0 l/m 2 min 0 min 0,9 UV-I 445 W/m 17,7 km/h (3 Bft)
21.08.2014 09:46 12,7 C 12,2 C 91 % 1016,7 hPa 0,0 l/m 2 min 0 min 0,9 UV-I 445 W/m 14,2 km/h (3 Bft)
21.08.2014 09:48 12,9 C 13,9 C 92 % 1016,8 hPa 0,0 l/m 2 min 0 min 0,9 UV-I 450 W/m 0,0 km/h (0 Bft)
21.08.2014 09:50 13,0 C 14,4 C 91 % 1016,7 hPa 0,0 l/m 2 min 0 min 1,0 UV-I 461 W/m 21,3 km/h (4 Bft)
21.08.2014 09:52 13,0 C 15,0 C 90 % 1016,7 hPa 0,0 l/m 2 min 0 min 1,0 UV-I 466 W/m 14,2 km/h (3 Bft)
21.08.2014 09:54 13,2 C 15,0 C 90 % 1016,8 hPa 0,0 l/m 2 min 0 min 1,0 UV-I 479 W/m 7,1 km/h (2 Bft)
21.08.2014 09:56 13,2 C 14,4 C 90 % 1016,8 hPa 0,0 l/m 2 min 0 min 1,1 UV-I 497 W/m 21,3 km/h (4 Bft)
21.08.2014 09:58 13,3 C 13,9 C 89 % 1016,9 hPa 0,0 l/m 2 min 0 min 1,0 UV-I 498 W/m 21,3 km/h (4 Bft)
21.08.2014 10:00 13,3 C 13,9 C 89 % 1016,8 hPa 0,0 l/m 2 min 0 min 1,0 UV-I 445 W/m 17,7 km/h (3 Bft)
21.08.2014 10:02 13,4 C 13,9 C 89 % 1016,7 hPa 0,0 l/m 2 min 0 min 1,1 UV-I 526 W/m 21,3 km/h (4 Bft)
21.08.2014 10:04 13,6 C 13,3 C 89 % 1016,7 hPa 0,0 l/m 2 min 0 min 0,9 UV-I 438 W/m 14,2 km/h (3 Bft)
21.08.2014 10:06 13,5 C 12,8 C 88 % 1016,7 hPa 0,0 l/m 0 min 0 min 1,0 UV-I 243 W/m 24,7 km/h (4 Bft)
21.08.2014 10:08 13,4 C 12,8 C 88 % 1016,7 hPa 0,0 l/m 0 min 0 min 1,0 UV-I 241 W/m 21,3 km/h (4 Bft)
21.08.2014 10:10 13,4 C 12,8 C 87 % 1016,7 hPa 0,0 l/m 0 min 0 min 1,1 UV-I 241 W/m 21,3 km/h (4 Bft)
21.08.2014 10:12 13,4 C 12,8 C 87 % 1016,8 hPa 0,0 l/m 0 min 0 min 0,9 UV-I 255 W/m 0,0 km/h (0 Bft)
21.08.2014 10:14 13,4 C 12,2 C 88 % 1016,8 hPa 0,0 l/m 2 min 0 min 0,9 UV-I 313 W/m 21,3 km/h (4 Bft)
21.08.2014 10:16 13,5 C 12,8 C 88 % 1016,8 hPa 0,0 l/m 2 min 0 min 1,2 UV-I 353 W/m 21,3 km/h (4 Bft)
21.08.2014 10:18 13,6 C 12,8 C 88 % 1016,8 hPa 0,0 l/m 2 min 0 min 1,3 UV-I 510 W/m 10,7 km/h (2 Bft)
21.08.2014 10:20 13,7 C 12,8 C 88 % 1016,8 hPa 0,0 l/m 2 min 0 min 1,4 UV-I 502 W/m 21,3 km/h (4 Bft)
21.08.2014 10:22 13,9 C 12,8 C 88 % 1016,9 hPa 0,0 l/m 2 min 0 min 1,4 UV-I 512 W/m 17,7 km/h (3 Bft)
21.08.2014 10:24 13,9 C 12,8 C 87 % 1016,8 hPa 0,0 l/m 2 min 0 min 1,4 UV-I 500 W/m 21,3 km/h (4 Bft)
21.08.2014 10:26 14,1 C 12,8 C 87 % 1016,7 hPa 0,0 l/m 2 min 0 min 1,5 UV-I 514 W/m 17,7 km/h (3 Bft)
21.08.2014 10:28 14,2 C 12,8 C 87 % 1016,8 hPa 0,0 l/m 2 min 0 min 1,5 UV-I 519 W/m 21,3 km/h (4 Bft)
21.08.2014 10:30 14,2 C 12,8 C 86 % 1016,7 hPa 0,0 l/m 2 min 0 min 1,5 UV-I 522 W/m 14,2 km/h (3 Bft)
21.08.2014 10:32 14,2 C 12,8 C 86 % 1016,7 hPa 0,0 l/m 2 min 0 min 1,6 UV-I 530 W/m 14,2 km/h (3 Bft)
21.08.2014 10:34 14,4 C 13,3 C 86 % 1016,8 hPa 0,0 l/m 2 min 0 min 1,6 UV-I 524 W/m 21,3 km/h (4 Bft)
21.08.2014 10:36 14,6 C 13,3 C 85 % 1016,7 hPa 0,0 l/m 2 min 0 min 1,7 UV-I 538 W/m 21,3 km/h (4 Bft)
21.08.2014 10:38 14,6 C 13,3 C 84 % 1016,7 hPa 0,0 l/m 2 min 0 min 1,7 UV-I 540 W/m 24,7 km/h (4 Bft)
21.08.2014 10:40 14,7 C 13,3 C 84 % 1016,8 hPa 0,0 l/m 2 min 0 min 1,7 UV-I 538 W/m 24,7 km/h (4 Bft)
21.08.2014 10:42 14,9 C 13,9 C 84 % 1016,8 hPa 0,0 l/m 2 min 0 min 1,7 UV-I 540 W/m 28,2 km/h (4 Bft)
21.08.2014 10:44 14,8 C 13,9 C 82 % 1016,9 hPa 0,0 l/m 2 min 0 min 1,8 UV-I 552 W/m 17,7 km/h (3 Bft)
21.08.2014 10:46 14,9 C 13,9 C 83 % 1016,8 hPa 0,0 l/m 2 min 0 min 1,8 UV-I 552 W/m 24,7 km/h (4 Bft)
21.08.2014 10:48 14,8 C 13,9 C 82 % 1016,8 hPa 0,0 l/m 2 min 0 min 1,9 UV-I 564 W/m 21,3 km/h (4 Bft)
21.08.2014 10:50 14,9 C 13,9 C 83 % 1016,8 hPa 0,0 l/m 2 min 0 min 1,9 UV-I 562 W/m 24,7 km/h (4 Bft)
21.08.2014 10:52 15,1 C 13,9 C 83 % 1016,8 hPa 0,0 l/m 2 min 0 min 1,9 UV-I 568 W/m 28,2 km/h (4 Bft)
21.08.2014 10:54 15,1 C 13,9 C 82 % 1016,8 hPa 0,0 l/m 2 min 0 min 2,0 UV-I 575 W/m 28,2 km/h (4 Bft)
21.08.2014 10:56 15,2 C 13,9 C 82 % 1016,9 hPa 0,0 l/m 2 min 0 min 2,1 UV-I 579 W/m 24,7 km/h (4 Bft)
21.08.2014 10:58 15,2 C 13,9 C 80 % 1016,8 hPa 0,0 l/m 2 min 0 min 2,1 UV-I 588 W/m 31,7 km/h (5 Bft)
21.08.2014 11:00 15,3 C 13,9 C 80 % 1016,7 hPa 0,0 l/m 2 min 0 min 2,2 UV-I 589 W/m 24,7 km/h (4 Bft)
21.08.2014 11:02 15,4 C 14,4 C 81 % 1016,7 hPa 0,0 l/m 2 min 0 min 2,2 UV-I 591 W/m 24,7 km/h (4 Bft)
21.08.2014 11:04 15,4 C 14,4 C 80 % 1016,8 hPa 0,0 l/m 2 min 0 min 2,2 UV-I 600 W/m 24,7 km/h (4 Bft)
21.08.2014 11:06 15,6 C 14,4 C 80 % 1016,7 hPa 0,0 l/m 2 min 0 min 2,2 UV-I 606 W/m 24,7 km/h (4 Bft)
21.08.2014 11:08 15,7 C 14,4 C 80 % 1016,8 hPa 0,0 l/m 2 min 0 min 2,3 UV-I 606 W/m 24,7 km/h (4 Bft)
21.08.2014 11:10 15,8 C 14,4 C 80 % 1016,7 hPa 0,0 l/m 2 min 0 min 2,3 UV-I 596 W/m 31,7 km/h (5 Bft)
21.08.2014 11:12 15,9 C 15,0 C 80 % 1016,7 hPa 0,0 l/m 2 min 0 min 2,4 UV-I 625 W/m 14,2 km/h (3 Bft)
21.08.2014 11:14 16,0 C 15,0 C 79 % 1016,7 hPa 0,0 l/m 2 min 0 min 2,5 UV-I 667 W/m 28,2 km/h (4 Bft)
21.08.2014 11:16 16,0 C 15,0 C 78 % 1016,6 hPa 0,0 l/m 2 min 0 min 2,4 UV-I 670 W/m 24,7 km/h (4 Bft)
21.08.2014 11:18 16,0 C 15,0 C 78 % 1016,7 hPa 0,0 l/m 2 min 0 min 2,1 UV-I 481 W/m 21,3 km/h (4 Bft)
21.08.2014 11:20 16,1 C 15,0 C 80 % 1016,7 hPa 0,0 l/m 2 min 0 min 2,4 UV-I 696 W/m 24,7 km/h (4 Bft)
21.08.2014 11:22 16,2 C 15,0 C 79 % 1016,6 hPa 0,0 l/m 2 min 0 min 2,1 UV-I 659 W/m 24,7 km/h (4 Bft)
21.08.2014 11:24 15,9 C 14,4 C 77 % 1016,7 hPa 0,0 l/m 0 min 0 min 1,6 UV-I 213 W/m 35,4 km/h (5 Bft)
21.08.2014 11:26 15,8 C 15,0 C 79 % 1016,7 hPa 0,0 l/m 0 min 0 min 2,0 UV-I 260 W/m 28,2 km/h (4 Bft)
21.08.2014 11:28 15,7 C 14,4 C 79 % 1016,7 hPa 0,0 l/m 0 min 0 min 1,4 UV-I 206 W/m 28,2 km/h (4 Bft)
21.08.2014 11:30 15,6 C 14,4 C 79 % 1016,6 hPa 0,0 l/m 0 min 0 min 1,6 UV-I 206 W/m 21,3 km/h (4 Bft)
21.08.2014 11:32 15,6 C 14,4 C 80 % 1016,6 hPa 0,0 l/m 0 min 0 min 2,2 UV-I 257 W/m 17,7 km/h (3 Bft)
21.08.2014 11:34 15,6 C 15,0 C 78 % 1016,7 hPa 0,0 l/m 2 min 0 min 2,3 UV-I 531 W/m 28,2 km/h (4 Bft)
21.08.2014 11:36 15,9 C 15,0 C 79 % 1016,6 hPa 0,0 l/m 2 min 0 min 2,8 UV-I 749 W/m 17,7 km/h (3 Bft)
21.08.2014 11:38 16,3 C 15,6 C 79 % 1016,5 hPa 0,0 l/m 2 min 0 min 2,8 UV-I 750 W/m 31,7 km/h (5 Bft)
21.08.2014 11:40 16,4 C 15,6 C 79 % 1016,5 hPa 0,0 l/m 2 min 0 min 2,9 UV-I 732 W/m 31,7 km/h (5 Bft)
21.08.2014 11:42 16,7 C 16,1 C 78 % 1016,5 hPa 0,0 l/m 2 min 0 min 3,0 UV-I 759 W/m 17,7 km/h (3 Bft)
21.08.2014 11:44 16,7 C 16,1 C 76 % 1016,6 hPa 0,0 l/m 2 min 0 min 3,0 UV-I 786 W/m 28,2 km/h (4 Bft)
21.08.2014 11:46 16,9 C 16,1 C 77 % 1016,5 hPa 0,0 l/m 2 min 0 min 2,6 UV-I 764 W/m 24,7 km/h (4 Bft)
21.08.2014 11:48 17,0 C 16,7 C 75 % 1016,5 hPa 0,0 l/m 2 min 0 min 2,6 UV-I 763 W/m 17,7 km/h (3 Bft)
21.08.2014 11:50 17,3 C 16,7 C 77 % 1016,5 hPa 0,0 l/m 2 min 0 min 2,7 UV-I 765 W/m 14,2 km/h (3 Bft)
21.08.2014 11:52 17,6 C 16,7 C 77 % 1016,5 hPa 0,0 l/m 2 min 0 min 2,9 UV-I 771 W/m 24,7 km/h (4 Bft)
21.08.2014 11:54 17,8 C 16,7 C 77 % 1016,5 hPa 0,0 l/m 2 min 0 min 3,1 UV-I 748 W/m 28,2 km/h (4 Bft)
21.08.2014 11:56 17,4 C 16,7 C 72 % 1016,6 hPa 0,0 l/m 2 min 0 min 3,2 UV-I 741 W/m 38,9 km/h (6 Bft)
21.08.2014 11:58 17,3 C 16,7 C 74 % 1016,5 hPa 0,0 l/m 2 min 0 min 3,2 UV-I 754 W/m 38,9 km/h (6 Bft)
21.08.2014 12:00 17,2 C 16,7 C 72 % 1016,4 hPa 0,0 l/m 2 min 0 min 3,2 UV-I 742 W/m 31,7 km/h (5 Bft)
21.08.2014 12:02 17,2 C 16,7 C 75 % 1016,4 hPa 0,0 l/m 2 min 0 min 3,2 UV-I 734 W/m 24,7 km/h (4 Bft)
21.08.2014 12:06 17,4 C 16,7 C 73 % 1016,5 hPa 0,0 l/m 2 min 0 min 3,0 UV-I 731 W/m 35,4 km/h (5 Bft)
21.08.2014 12:08 17,2 C 16,1 C 74 % 1016,5 hPa 0,0 l/m 0 min 0 min 1,5 UV-I 226 W/m 24,7 km/h (4 Bft)
21.08.2014 12:10 16,9 C 16,1 C 73 % 1016,5 hPa 0,0 l/m 2 min 0 min 3,0 UV-I 499 W/m 38,9 km/h (6 Bft)
21.08.2014 12:12 16,8 C 16,1 C 71 % 1016,5 hPa 0,0 l/m 2 min 0 min 2,6 UV-I 765 W/m 28,2 km/h (4 Bft)
21.08.2014 12:14 16,8 C 16,1 C 72 % 1016,4 hPa 0,0 l/m 2 min 0 min 2,6 UV-I 755 W/m 35,4 km/h (5 Bft)
21.08.2014 12:16 16,8 C 15,6 C 73 % 1016,5 hPa 0,0 l/m 0 min 0 min 2,5 UV-I 244 W/m 24,7 km/h (4 Bft)
21.08.2014 12:18 16,7 C 15,6 C 73 % 1016,5 hPa 0,0 l/m 0 min 0 min 2,8 UV-I 329 W/m 35,4 km/h (5 Bft)
21.08.2014 12:20 16,9 C 16,1 C 72 % 1016,5 hPa 0,0 l/m 2 min 0 min 3,4 UV-I 749 W/m 28,2 km/h (4 Bft)
21.08.2014 12:22 17,2 C 16,1 C 72 % 1016,4 hPa 0,0 l/m 2 min 0 min 2,8 UV-I 771 W/m 46,0 km/h (6 Bft)
21.08.2014 12:24 17,2 C 16,1 C 69 % 1016,4 hPa 0,0 l/m 2 min 0 min 2,6 UV-I 759 W/m 46,0 km/h (6 Bft)
21.08.2014 12:26 17,1 C 15,6 C 68 % 1016,4 hPa 0,0 l/m 0 min 0 min 2,0 UV-I 259 W/m 49,5 km/h (6 Bft)
21.08.2014 12:28 16,8 C 15,6 C 69 % 1016,4 hPa 0,0 l/m 0 min 0 min 2,1 UV-I 235 W/m 38,9 km/h (6 Bft)
21.08.2014 12:30 16,7 C 15,6 C 70 % 1016,4 hPa 0,0 l/m 0 min 0 min 1,8 UV-I 261 W/m 35,4 km/h (5 Bft)
21.08.2014 12:32 16,7 C 16,1 C 73 % 1016,4 hPa 0,0 l/m 0 min 0 min 2,2 UV-I 230 W/m 31,7 km/h (5 Bft)
21.08.2014 12:34 16,9 C 16,7 C 73 % 1016,3 hPa 0,0 l/m 2 min 0 min 2,4 UV-I 793 W/m 28,2 km/h (4 Bft)
21.08.2014 12:36 17,0 C 16,1 C 71 % 1016,3 hPa 0,0 l/m 2 min 0 min 1,8 UV-I 582 W/m 31,7 km/h (5 Bft)
21.08.2014 12:38 17,0 C 16,1 C 73 % 1016,3 hPa 0,0 l/m 0 min 0 min 1,6 UV-I 201 W/m 21,3 km/h (4 Bft)
21.08.2014 12:40 16,9 C 16,1 C 71 % 1016,3 hPa 0,0 l/m 0 min 0 min 2,0 UV-I 312 W/m 31,7 km/h (5 Bft)
21.08.2014 12:42 17,0 C 16,1 C 72 % 1016,3 hPa 0,0 l/m 2 min 0 min 1,9 UV-I 592 W/m 28,2 km/h (4 Bft)
21.08.2014 12:44 17,0 C 16,1 C 71 % 1016,3 hPa 0,0 l/m 0 min 0 min 1,6 UV-I 175 W/m 21,3 km/h (4 Bft)
21.08.2014 12:46 16,8 C 16,1 C 70 % 1016,3 hPa 0,0 l/m 0 min 0 min 1,9 UV-I 215 W/m 38,9 km/h (6 Bft)
21.08.2014 12:48 16,9 C 16,1 C 69 % 1016,3 hPa 0,0 l/m 0 min 0 min 2,4 UV-I 225 W/m 42,4 km/h (6 Bft)
21.08.2014 12:50 16,9 C 16,1 C 70 % 1016,3 hPa 0,0 l/m 0 min 0 min 2,3 UV-I 189 W/m 31,7 km/h (5 Bft)
21.08.2014 12:52 16,9 C 16,1 C 70 % 1016,3 hPa 0,0 l/m 0 min 0 min 2,2 UV-I 296 W/m 38,9 km/h (6 Bft)
21.08.2014 12:54 17,1 C 16,1 C 70 % 1016,3 hPa 0,0 l/m 2 min 0 min 3,7 UV-I 773 W/m 31,7 km/h (5 Bft)
21.08.2014 12:56 17,4 C 16,7 C 72 % 1016,2 hPa 0,0 l/m 2 min 0 min 3,5 UV-I 789 W/m 28,2 km/h (4 Bft)
21.08.2014 12:58 17,5 C 16,7 C 68 % 1016,2 hPa 0,0 l/m 2 min 0 min 3,1 UV-I 653 W/m 31,7 km/h (5 Bft)
21.08.2014 13:00 17,3 C 16,1 C 68 % 1016,3 hPa 0,0 l/m 0 min 0 min 1,6 UV-I 192 W/m 31,7 km/h (5 Bft)
21.08.2014 13:02 17,0 C 15,6 C 66 % 1016,3 hPa 0,0 l/m 0 min 0 min 2,4 UV-I 257 W/m 42,4 km/h (6 Bft)
21.08.2014 13:04 16,9 C 16,1 C 67 % 1016,3 hPa 0,0 l/m 0 min 0 min 3,2 UV-I 290 W/m 38,9 km/h (6 Bft)
21.08.2014 13:06 17,3 C 16,7 C 69 % 1016,2 hPa 0,0 l/m 2 min 0 min 3,6 UV-I 510 W/m 31,7 km/h (5 Bft)
21.08.2014 13:08 17,7 C 17,2 C 69 % 1016,2 hPa 0,0 l/m 2 min 0 min 3,3 UV-I 850 W/m 38,9 km/h (6 Bft)
21.08.2014 13:10 17,8 C 17,2 C 66 % 1016,2 hPa 0,0 l/m 2 min 0 min 3,0 UV-I 730 W/m 35,4 km/h (5 Bft)
21.08.2014 13:12 17,8 C 17,2 C 68 % 1016,3 hPa 0,0 l/m 0 min 0 min 3,3 UV-I 316 W/m 35,4 km/h (5 Bft)
21.08.2014 13:14 17,9 C 17,2 C 67 % 1016,2 hPa 0,0 l/m 2 min 0 min 3,5 UV-I 581 W/m 17,7 km/h (3 Bft)
21.08.2014 13:16 18,2 C 17,8 C 70 % 1016,2 hPa 0,0 l/m 2 min 0 min 3,3 UV-I 787 W/m 14,2 km/h (3 Bft)
21.08.2014 13:18 18,4 C 17,8 C 68 % 1016,1 hPa 0,0 l/m 2 min 0 min 3,7 UV-I 822 W/m 24,7 km/h (4 Bft)
21.08.2014 13:20 18,4 C 17,8 C 67 % 1016,2 hPa 0,0 l/m 2 min 0 min 3,0 UV-I 774 W/m 31,7 km/h (5 Bft)
21.08.2014 13:22 18,3 C 17,8 C 67 % 1016,1 hPa 0,0 l/m 2 min 0 min 3,0 UV-I 406 W/m 21,3 km/h (4 Bft)
21.08.2014 13:24 18,3 C 17,8 C 67 % 1016,1 hPa 0,0 l/m 2 min 0 min 3,1 UV-I 834 W/m 14,2 km/h (3 Bft)
21.08.2014 13:26 18,4 C 17,8 C 68 % 1016,1 hPa 0,0 l/m 2 min 0 min 2,4 UV-I 528 W/m 31,7 km/h (5 Bft)
21.08.2014 13:28 18,4 C 17,8 C 67 % 1016,1 hPa 0,0 l/m 0 min 0 min 2,6 UV-I 279 W/m 49,5 km/h (6 Bft)
21.08.2014 13:30 18,2 C 17,2 C 68 % 1016,1 hPa 0,0 l/m 0 min 0 min 1,9 UV-I 322 W/m 24,7 km/h (4 Bft)
21.08.2014 13:32 17,9 C 17,2 C 67 % 1016,1 hPa 0,0 l/m 0 min 0 min 1,6 UV-I 276 W/m 24,7 km/h (4 Bft)
21.08.2014 13:34 17,7 C 17,2 C 71 % 1016,1 hPa 0,0 l/m 0 min 0 min 1,4 UV-I 258 W/m 21,3 km/h (4 Bft)
21.08.2014 13:36 17,6 C 16,7 C 68 % 1016,1 hPa 0,0 l/m 0 min 0 min 1,5 UV-I 259 W/m 38,9 km/h (6 Bft)
21.08.2014 13:38 17,5 C 16,7 C 69 % 1016,1 hPa 0,0 l/m 0 min 0 min 1,9 UV-I 297 W/m 31,7 km/h (5 Bft)
21.08.2014 13:40 17,6 C 17,2 C 69 % 1016,1 hPa 0,0 l/m 0 min 0 min 3,2 UV-I 350 W/m 35,4 km/h (5 Bft)
21.08.2014 13:42 17,7 C 17,2 C 68 % 1016,1 hPa 0,0 l/m 0 min 0 min 2,6 UV-I 328 W/m 35,4 km/h (5 Bft)
21.08.2014 13:44 17,9 C 17,8 C 69 % 1016,0 hPa 0,0 l/m 2 min 0 min 3,8 UV-I 417 W/m 35,4 km/h (5 Bft)
21.08.2014 13:46 18,4 C 17,8 C 66 % 1016,0 hPa 0,0 l/m 2 min 0 min 3,8 UV-I 865 W/m 21,3 km/h (4 Bft)
21.08.2014 13:48 18,7 C 18,3 C 70 % 1016,0 hPa 0,0 l/m 2 min 0 min 3,8 UV-I 864 W/m 28,2 km/h (4 Bft)
21.08.2014 13:50 18,9 C 18,3 C 64 % 1016,0 hPa 0,0 l/m 2 min 0 min 3,8 UV-I 848 W/m 38,9 km/h (6 Bft)
21.08.2014 13:52 18,9 C 18,3 C 64 % 1016,0 hPa 0,0 l/m 2 min 0 min 3,7 UV-I 607 W/m 21,3 km/h (4 Bft)
21.08.2014 13:54 19,1 C 18,3 C 64 % 1016,0 hPa 0,0 l/m 2 min 0 min 3,2 UV-I 671 W/m 31,7 km/h (5 Bft)
21.08.2014 13:56 18,8 C 18,3 C 63 % 1015,9 hPa 0,0 l/m 2 min 0 min 2,9 UV-I 868 W/m 21,3 km/h (4 Bft)
21.08.2014 13:58 18,8 C 17,8 C 62 % 1016,0 hPa 0,0 l/m 2 min 0 min 1,9 UV-I 868 W/m 35,4 km/h (5 Bft)
21.08.2014 14:00 18,5 C 17,8 C 64 % 1016,0 hPa 0,0 l/m 0 min 0 min 1,5 UV-I 257 W/m 31,7 km/h (5 Bft)
21.08.2014 14:02 18,4 C 17,2 C 66 % 1016,0 hPa 0,0 l/m 0 min 0 min 1,4 UV-I 188 W/m 24,7 km/h (4 Bft)
21.08.2014 14:04 18,2 C 17,2 C 67 % 1015,9 hPa 0,0 l/m 0 min 0 min 1,2 UV-I 180 W/m 17,7 km/h (3 Bft)
21.08.2014 14:06 17,9 C 16,7 C 65 % 1016,0 hPa 0,0 l/m 0 min 0 min 1,1 UV-I 161 W/m 35,4 km/h (5 Bft)
21.08.2014 14:08 17,6 C 16,1 C 61 % 1016,0 hPa 0,0 l/m 0 min 0 min 0,9 UV-I 156 W/m 35,4 km/h (5 Bft)
21.08.2014 14:10 17,3 C 16,1 C 64 % 1015,9 hPa 0,0 l/m 0 min 0 min 0,8 UV-I 152 W/m 24,7 km/h (4 Bft)
21.08.2014 14:12 17,2 C 16,1 C 63 % 1015,9 hPa 0,0 l/m 0 min 0 min 0,6 UV-I 149 W/m 31,7 km/h (5 Bft)
21.08.2014 14:14 17,1 C 15,6 C 63 % 1016,0 hPa 0,0 l/m 0 min 0 min 0,5 UV-I 142 W/m 31,7 km/h (5 Bft)
21.08.2014 14:16 16,9 C 15,6 C 65 % 1015,9 hPa 0,0 l/m 0 min 0 min 0,5 UV-I 156 W/m 31,7 km/h (5 Bft)
21.08.2014 14:18 16,9 C 15,6 C 64 % 1015,9 hPa 0,0 l/m 0 min 0 min 0,9 UV-I 194 W/m 42,4 km/h (6 Bft)
21.08.2014 14:20 17,2 C 16,1 C 65 % 1016,0 hPa 0,0 l/m 2 min 0 min 2,0 UV-I 386 W/m 31,7 km/h (5 Bft)
21.08.2014 14:22 17,5 C 16,7 C 63 % 1016,0 hPa 0,0 l/m 2 min 0 min 2,5 UV-I 487 W/m 31,7 km/h (5 Bft)
21.08.2014 14:24 17,7 C 17,2 C 65 % 1015,9 hPa 0,0 l/m 2 min 0 min 2,9 UV-I 517 W/m 21,3 km/h (4 Bft)
21.08.2014 14:26 18,1 C 17,8 C 64 % 1015,9 hPa 0,0 l/m 2 min 0 min 3,4 UV-I 845 W/m 24,7 km/h (4 Bft)
21.08.2014 14:28 18,7 C 18,3 C 65 % 1015,9 hPa 0,0 l/m 2 min 0 min 3,4 UV-I 845 W/m 28,2 km/h (4 Bft)
21.08.2014 14:30 19,3 C 18,3 C 64 % 1015,8 hPa 0,0 l/m 2 min 0 min 2,8 UV-I 748 W/m 24,7 km/h (4 Bft)
21.08.2014 14:32 19,4 C 18,3 C 62 % 1015,8 hPa 0,0 l/m 0 min 0 min 2,2 UV-I 316 W/m 28,2 km/h (4 Bft)
21.08.2014 14:34 19,5 C 18,9 C 61 % 1015,9 hPa 0,0 l/m 2 min 0 min 3,2 UV-I 526 W/m 31,7 km/h (5 Bft)
21.08.2014 14:36 19,7 C 18,9 C 63 % 1015,9 hPa 0,0 l/m 2 min 0 min 3,2 UV-I 824 W/m 21,3 km/h (4 Bft)
21.08.2014 14:38 19,7 C 17,8 C 61 % 1015,9 hPa 0,0 l/m 2 min 0 min 1,6 UV-I 592 W/m 38,9 km/h (6 Bft)
21.08.2014 14:40 19,2 C 17,2 C 60 % 1015,9 hPa 0,0 l/m 0 min 0 min 1,2 UV-I 193 W/m 31,7 km/h (5 Bft)
21.08.2014 14:42 18,8 C 16,7 C 60 % 1015,9 hPa 0,0 l/m 0 min 0 min 0,8 UV-I 154 W/m 14,2 km/h (3 Bft)
21.08.2014 14:44 18,6 C 16,7 C 63 % 1015,8 hPa 0,0 l/m 0 min 0 min 0,4 UV-I 136 W/m 24,7 km/h (4 Bft)
21.08.2014 14:46 18,2 C 16,1 C 64 % 1015,9 hPa 0,0 l/m 0 min 0 min 0,0 UV-I 132 W/m 21,3 km/h (4 Bft)
21.08.2014 14:48 17,9 C 16,1 C 65 % 1015,9 hPa 0,0 l/m 0 min 0 min 0,0 UV-I 138 W/m 24,7 km/h (4 Bft)
21.08.2014 14:50 17,7 C 16,1 C 65 % 1015,9 hPa 0,0 l/m 0 min 0 min 0,1 UV-I 157 W/m 21,3 km/h (4 Bft)
21.08.2014 14:52 17,6 C 16,1 C 67 % 1015,9 hPa 0,0 l/m 0 min 0 min 0,7 UV-I 211 W/m 38,9 km/h (6 Bft)
21.08.2014 14:54 17,4 C 16,1 C 64 % 1015,9 hPa 0,0 l/m 0 min 0 min 1,0 UV-I 241 W/m 35,4 km/h (5 Bft)
21.08.2014 14:56 17,5 C 16,7 C 66 % 1015,9 hPa 0,0 l/m 0 min 0 min 1,1 UV-I 261 W/m 31,7 km/h (5 Bft)
21.08.2014 14:58 17,6 C 16,7 C 66 % 1015,8 hPa 0,0 l/m 0 min 0 min 1,2 UV-I 270 W/m 35,4 km/h (5 Bft)
21.08.2014 15:00 17,6 C 16,7 C 64 % 1015,9 hPa 0,0 l/m 0 min 0 min 1,3 UV-I 266 W/m 28,2 km/h (4 Bft)
21.08.2014 15:02 17,6 C 16,7 C 67 % 1015,8 hPa 0,0 l/m 0 min 0 min 1,3 UV-I 251 W/m 17,7 km/h (3 Bft)
21.08.2014 15:04 17,6 C 16,7 C 64 % 1015,8 hPa 0,0 l/m 0 min 0 min 1,2 UV-I 242 W/m 38,9 km/h (6 Bft)
21.08.2014 15:06 17,6 C 16,7 C 64 % 1015,8 hPa 0,0 l/m 0 min 0 min 1,2 UV-I 237 W/m 38,9 km/h (6 Bft)
21.08.2014 15:08 17,4 C 16,7 C 65 % 1015,8 hPa 0,0 l/m 0 min 0 min 1,1 UV-I 230 W/m 31,7 km/h (5 Bft)
21.08.2014 15:10 17,4 C 16,7 C 65 % 1015,7 hPa 0,0 l/m 0 min 0 min 1,1 UV-I 223 W/m 21,3 km/h (4 Bft)
21.08.2014 15:12 17,3 C 16,7 C 66 % 1015,7 hPa 0,0 l/m 0 min 0 min 1,0 UV-I 213 W/m 35,4 km/h (5 Bft)
21.08.2014 15:14 17,3 C 16,1 C 66 % 1015,7 hPa 0,0 l/m 0 min 0 min 0,9 UV-I 209 W/m 31,7 km/h (5 Bft)
21.08.2014 15:16 17,3 C 16,1 C 66 % 1015,7 hPa 0,0 l/m 0 min 0 min 0,9 UV-I 209 W/m 35,4 km/h (5 Bft)
21.08.2014 15:18 17,3 C 16,1 C 67 % 1015,7 hPa 0,0 l/m 0 min 0 min 0,8 UV-I 211 W/m 35,4 km/h (5 Bft)
21.08.2014 15:20 17,3 C 16,1 C 67 % 1015,7 hPa 0,0 l/m 0 min 0 min 0,8 UV-I 215 W/m 17,7 km/h (3 Bft)
21.08.2014 15:22 17,3 C 16,1 C 67 % 1015,7 hPa 0,0 l/m 0 min 0 min 0,9 UV-I 229 W/m 21,3 km/h (4 Bft)
21.08.2014 15:24 17,3 C 16,1 C 67 % 1015,7 hPa 0,0 l/m 0 min 0 min 1,0 UV-I 256 W/m 21,3 km/h (4 Bft)
21.08.2014 15:26 17,4 C 16,7 C 67 % 1015,7 hPa 0,0 l/m 0 min 0 min 1,2 UV-I 297 W/m 24,7 km/h (4 Bft)
21.08.2014 15:28 17,5 C 16,7 C 67 % 1015,6 hPa 0,0 l/m 2 min 0 min 1,6 UV-I 386 W/m 31,7 km/h (5 Bft)
21.08.2014 15:30 17,7 C 17,2 C 67 % 1015,5 hPa 0,0 l/m 2 min 0 min 2,3 UV-I 425 W/m 21,3 km/h (4 Bft)
21.08.2014 15:32 18,1 C 17,2 C 65 % 1015,5 hPa 0,0 l/m 2 min 0 min 2,1 UV-I 398 W/m 24,7 km/h (4 Bft)
21.08.2014 15:34 18,2 C 17,2 C 66 % 1015,5 hPa 0,0 l/m 0 min 0 min 1,7 UV-I 316 W/m 31,7 km/h (5 Bft)
21.08.2014 15:36 18,0 C 17,2 C 64 % 1015,5 hPa 0,0 l/m 0 min 0 min 1,6 UV-I 293 W/m 31,7 km/h (5 Bft)
21.08.2014 15:38 18,0 C 17,2 C 67 % 1015,5 hPa 0,0 l/m 0 min 0 min 1,3 UV-I 245 W/m 14,2 km/h (3 Bft)
21.08.2014 15:40 17,9 C 17,2 C 65 % 1015,4 hPa 0,0 l/m 0 min 0 min 1,2 UV-I 223 W/m 17,7 km/h (3 Bft)
21.08.2014 15:42 17,9 C 16,7 C 65 % 1015,4 hPa 0,0 l/m 0 min 0 min 1,1 UV-I 214 W/m 24,7 km/h (4 Bft)
21.08.2014 15:44 17,8 C 16,7 C 64 % 1015,4 hPa 0,0 l/m 0 min 0 min 1,0 UV-I 208 W/m 21,3 km/h (4 Bft)
21.08.2014 15:46 17,7 C 16,7 C 66 % 1015,5 hPa 0,0 l/m 0 min 0 min 0,9 UV-I 198 W/m 21,3 km/h (4 Bft)
21.08.2014 15:48 17,7 C 16,7 C 64 % 1015,5 hPa 0,0 l/m 0 min 0 min 0,7 UV-I 193 W/m 24,7 km/h (4 Bft)
21.08.2014 15:50 17,6 C 16,7 C 65 % 1015,5 hPa 0,0 l/m 0 min 0 min 0,7 UV-I 191 W/m 24,7 km/h (4 Bft)
21.08.2014 15:52 17,5 C 16,7 C 66 % 1015,4 hPa 0,0 l/m 0 min 0 min 0,6 UV-I 186 W/m 17,7 km/h (3 Bft)
21.08.2014 15:54 17,4 C 16,7 C 68 % 1015,5 hPa 0,0 l/m 0 min 0 min 0,6 UV-I 182 W/m 21,3 km/h (4 Bft)
21.08.2014 15:56 17,4 C 16,1 C 65 % 1015,4 hPa 0,0 l/m 0 min 0 min 0,5 UV-I 184 W/m 24,7 km/h (4 Bft)
21.08.2014 15:58 17,4 C 16,1 C 65 % 1015,4 hPa 0,0 l/m 0 min 0 min 0,6 UV-I 195 W/m 21,3 km/h (4 Bft)
21.08.2014 16:00 17,3 C 16,1 C 66 % 1015,4 hPa 0,0 l/m 0 min 0 min 0,7 UV-I 218 W/m 14,2 km/h (3 Bft)
21.08.2014 16:02 17,5 C 16,7 C 67 % 1015,4 hPa 0,0 l/m 0 min 0 min 0,9 UV-I 282 W/m 14,2 km/h (3 Bft)
21.08.2014 16:04 17,6 C 16,7 C 66 % 1015,4 hPa 0,0 l/m 0 min 0 min 1,0 UV-I 301 W/m 17,7 km/h (3 Bft)
21.08.2014 16:06 17,8 C 17,2 C 68 % 1015,4 hPa 0,0 l/m 2 min 0 min 1,2 UV-I 325 W/m 17,7 km/h (3 Bft)
21.08.2014 16:08 17,9 C 17,2 C 67 % 1015,4 hPa 0,0 l/m 2 min 0 min 1,3 UV-I 335 W/m 24,7 km/h (4 Bft)
21.08.2014 16:10 17,9 C 17,2 C 66 % 1015,3 hPa 0,0 l/m 2 min 0 min 1,4 UV-I 358 W/m 24,7 km/h (4 Bft)
21.08.2014 16:12 18,1 C 17,8 C 66 % 1015,3 hPa 0,0 l/m 2 min 0 min 1,8 UV-I 367 W/m 24,7 km/h (4 Bft)
21.08.2014 16:14 17,9 C 17,2 C 64 % 1015,3 hPa 0,0 l/m 2 min 0 min 1,6 UV-I 359 W/m 28,2 km/h (4 Bft)
21.08.2014 16:16 18,0 C 17,8 C 64 % 1015,3 hPa 0,0 l/m 2 min 0 min 1,8 UV-I 401 W/m 21,3 km/h (4 Bft)
21.08.2014 16:18 18,3 C 17,8 C 67 % 1015,3 hPa 0,0 l/m 2 min 0 min 2,0 UV-I 401 W/m 21,3 km/h (4 Bft)
21.08.2014 16:20 18,8 C 18,3 C 65 % 1015,3 hPa 0,0 l/m 2 min 0 min 1,9 UV-I 575 W/m 24,7 km/h (4 Bft)
21.08.2014 16:22 18,9 C 19,4 C 63 % 1015,2 hPa 0,0 l/m 2 min 0 min 2,1 UV-I 634 W/m 24,7 km/h (4 Bft)
21.08.2014 16:24 19,0 C 20,6 C 63 % 1015,3 hPa 0,0 l/m 2 min 0 min 2,0 UV-I 594 W/m 21,3 km/h (4 Bft)
21.08.2014 16:26 18,9 C 20,6 C 62 % 1015,2 hPa 0,0 l/m 2 min 0 min 1,9 UV-I 570 W/m 24,7 km/h (4 Bft)
21.08.2014 16:28 19,0 C 20,0 C 62 % 1015,2 hPa 0,0 l/m 2 min 0 min 1,8 UV-I 547 W/m 17,7 km/h (3 Bft)
21.08.2014 16:30 19,0 C 18,9 C 59 % 1015,2 hPa 0,0 l/m 2 min 0 min 1,8 UV-I 536 W/m 31,7 km/h (5 Bft)
21.08.2014 16:32 18,9 C 19,4 C 60 % 1015,2 hPa 0,0 l/m 2 min 0 min 1,8 UV-I 540 W/m 17,7 km/h (3 Bft)
21.08.2014 16:34 19,1 C 20,6 C 59 % 1015,2 hPa 0,0 l/m 2 min 0 min 1,7 UV-I 536 W/m 21,3 km/h (4 Bft)
21.08.2014 16:36 19,1 C 21,1 C 62 % 1015,1 hPa 0,0 l/m 2 min 0 min 1,7 UV-I 519 W/m 28,2 km/h (4 Bft)
21.08.2014 16:38 19,2 C 20,0 C 61 % 1015,1 hPa 0,0 l/m 2 min 0 min 1,7 UV-I 519 W/m 21,3 km/h (4 Bft)
21.08.2014 16:40 19,3 C 18,9 C 61 % 1015,0 hPa 0,0 l/m 2 min 0 min 1,6 UV-I 522 W/m 24,7 km/h (4 Bft)
21.08.2014 16:42 19,3 C 18,3 C 61 % 1015,0 hPa 0,0 l/m 2 min 0 min 1,6 UV-I 513 W/m 24,7 km/h (4 Bft)
21.08.2014 16:44 19,3 C 18,3 C 61 % 1015,1 hPa 0,0 l/m 2 min 0 min 1,6 UV-I 512 W/m 21,3 km/h (4 Bft)
21.08.2014 16:46 19,2 C 17,8 C 61 % 1014,9 hPa 0,0 l/m 2 min 0 min 1,5 UV-I 506 W/m 28,2 km/h (4 Bft)
21.08.2014 16:48 19,3 C 17,8 C 62 % 1014,9 hPa 0,0 l/m 2 min 0 min 1,5 UV-I 498 W/m 35,4 km/h (5 Bft)
21.08.2014 16:50 19,5 C 17,8 C 60 % 1014,9 hPa 0,0 l/m 2 min 0 min 1,4 UV-I 490 W/m 21,3 km/h (4 Bft)
21.08.2014 16:52 19,6 C 17,8 C 60 % 1014,8 hPa 0,0 l/m 2 min 0 min 1,3 UV-I 477 W/m 21,3 km/h (4 Bft)
21.08.2014 16:54 19,6 C 17,8 C 58 % 1014,8 hPa 0,0 l/m 2 min 0 min 1,2 UV-I 472 W/m 28,2 km/h (4 Bft)
21.08.2014 16:56 19,3 C 17,2 C 60 % 1014,8 hPa 0,0 l/m 0 min 0 min 0,7 UV-I 118 W/m 21,3 km/h (4 Bft)
21.08.2014 16:58 19,0 C 17,2 C 60 % 1014,8 hPa 0,0 l/m 0 min 0 min 0,7 UV-I 115 W/m 28,2 km/h (4 Bft)
21.08.2014 17:00 18,7 C 16,7 C 61 % 1014,8 hPa 0,0 l/m 0 min 0 min 0,6 UV-I 113 W/m 21,3 km/h (4 Bft)
21.08.2014 17:02 18,5 C 16,7 C 61 % 1014,9 hPa 0,0 l/m 0 min 0 min 0,5 UV-I 103 W/m 28,2 km/h (4 Bft)
21.08.2014 17:04 18,2 C 16,7 C 62 % 1014,9 hPa 0,0 l/m 0 min 0 min 0,0 UV-I 97 W/m 24,7 km/h (4 Bft)
21.08.2014 17:06 18,1 C 16,7 C 64 % 1015,0 hPa 0,0 l/m 0 min 0 min 0,0 UV-I 98 W/m 21,3 km/h (4 Bft)
21.08.2014 17:08 18,0 C 16,7 C 64 % 1015,0 hPa 0,0 l/m 0 min 0 min 0,0 UV-I 96 W/m 0,0 km/h (0 Bft)
21.08.2014 17:10 17,9 C 16,1 C 65 % 1014,9 hPa 0,0 l/m 0 min 0 min 0,0 UV-I 86 W/m 24,7 km/h (4 Bft)
21.08.2014 17:12 17,8 C 16,1 C 65 % 1015,0 hPa 0,0 l/m 0 min 0 min 0,0 UV-I 75 W/m 21,3 km/h (4 Bft)
21.08.2014 17:14 17,7 C 16,1 C 64 % 1014,9 hPa 0,0 l/m 0 min 0 min 0,0 UV-I 68 W/m 24,7 km/h (4 Bft)
21.08.2014 17:16 17,7 C 16,1 C 64 % 1015,0 hPa 0,0 l/m 0 min 0 min 0,0 UV-I 62 W/m 10,7 km/h (2 Bft)
21.08.2014 17:18 17,6 C 16,1 C 66 % 1014,9 hPa 0,0 l/m 0 min 0 min 0,0 UV-I 58 W/m 17,7 km/h (3 Bft)
21.08.2014 17:20 17,5 C 15,6 C 66 % 1015,1 hPa 0,0 l/m 0 min 0 min 0,0 UV-I 53 W/m 24,7 km/h (4 Bft)
21.08.2014 17:22 17,4 C 15,6 C 65 % 1015,0 hPa 0,0 l/m 0 min 0 min 0,0 UV-I 51 W/m 24,7 km/h (4 Bft)
21.08.2014 17:24 17,4 C 15,6 C 65 % 1014,9 hPa 0,0 l/m 0 min 0 min 0,0 UV-I 54 W/m 21,3 km/h (4 Bft)
21.08.2014 17:26 17,4 C 15,6 C 65 % 1014,9 hPa 0,0 l/m 0 min 0 min 0,0 UV-I 62 W/m 21,3 km/h (4 Bft)
21.08.2014 17:28 17,3 C 15,6 C 66 % 1014,9 hPa 0,0 l/m 0 min 0 min 0,0 UV-I 65 W/m 17,7 km/h (3 Bft)
21.08.2014 17:30 17,3 C 15,6 C 66 % 1014,9 hPa 0,0 l/m 0 min 0 min 0,0 UV-I 63 W/m 17,7 km/h (3 Bft)
21.08.2014 17:32 17,2 C 15,6 C 66 % 1014,9 hPa 0,0 l/m 0 min 0 min 0,0 UV-I 56 W/m 17,7 km/h (3 Bft)
21.08.2014 17:34 17,2 C 15,6 C 68 % 1014,9 hPa 0,0 l/m 0 min 0 min 0,0 UV-I 49 W/m 10,7 km/h (2 Bft)
21.08.2014 17:36 17,1 C 15,6 C 67 % 1014,9 hPa 0,0 l/m 0 min 0 min 0,0 UV-I 47 W/m 10,7 km/h (2 Bft)
21.08.2014 17:38 17,1 C 15,6 C 69 % 1014,9 hPa 0,0 l/m 0 min 0 min 0,0 UV-I 44 W/m 10,7 km/h (2 Bft)
21.08.2014 17:40 17,1 C 15,6 C 67 % 1014,9 hPa 0,0 l/m 0 min 0 min 0,0 UV-I 47 W/m 7,1 km/h (2 Bft)
21.08.2014 17:42 17,1 C 15,0 C 68 % 1014,9 hPa 0,0 l/m 0 min 0 min 0,0 UV-I 53 W/m 0,0 km/h (0 Bft)
21.08.2014 17:44 17,0 C 15,0 C 69 % 1014,8 hPa 0,0 l/m 0 min 0 min 0,0 UV-I 61 W/m 0,0 km/h (0 Bft)
21.08.2014 17:46 17,0 C 15,0 C 68 % 1014,8 hPa 0,0 l/m 0 min 0 min 0,0 UV-I 67 W/m 0,0 km/h (0 Bft)
21.08.2014 17:48 17,0 C 15,0 C 68 % 1014,8 hPa 0,0 l/m 0 min 0 min 0,0 UV-I 80 W/m 0,0 km/h (0 Bft)
21.08.2014 17:50 17,1 C 15,6 C 69 % 1014,8 hPa 0,0 l/m 0 min 0 min 0,0 UV-I 109 W/m 0,0 km/h (0 Bft)
21.08.2014 17:52 17,2 C 15,6 C 69 % 1014,9 hPa 0,0 l/m 0 min 0 min 0,0 UV-I 151 W/m 0,0 km/h (0 Bft)
21.08.2014 17:54 17,4 C 16,1 C 68 % 1014,8 hPa 0,0 l/m 2 min 0 min 0,0 UV-I 308 W/m 0,0 km/h (0 Bft)
21.08.2014 17:56 17,8 C 16,1 C 68 % 1014,8 hPa 0,0 l/m 2 min 0 min 0,0 UV-I 300 W/m 0,0 km/h (0 Bft)
21.08.2014 17:58 17,9 C 16,1 C 67 % 1014,8 hPa 0,0 l/m 2 min 0 min 0,0 UV-I 310 W/m 0,0 km/h (0 Bft)
21.08.2014 18:00 18,1 C 16,7 C 66 % 1014,7 hPa 0,0 l/m 2 min 0 min 0,0 UV-I 396 W/m 0,0 km/h (0 Bft)
21.08.2014 18:02 18,3 C 16,7 C 66 % 1014,7 hPa 0,0 l/m 2 min 0 min 0,0 UV-I 385 W/m 0,0 km/h (0 Bft)
21.08.2014 18:06 18,4 C 16,7 C 63 % 1014,7 hPa 0,0 l/m 2 min 0 min 0,0 UV-I 337 W/m 10,7 km/h (2 Bft)
21.08.2014 18:08 18,4 C 16,7 C 64 % 1014,7 hPa 0,0 l/m 2 min 0 min 0,0 UV-I 306 W/m 17,7 km/h (3 Bft)
21.08.2014 18:10 18,5 C 16,7 C 64 % 1014,7 hPa 0,0 l/m 2 min 0 min 0,0 UV-I 298 W/m 14,2 km/h (3 Bft)
21.08.2014 18:12 18,5 C 16,7 C 64 % 1014,7 hPa 0,0 l/m 2 min 0 min 0,0 UV-I 296 W/m 10,7 km/h (2 Bft)
21.08.2014 18:14 18,4 C 16,7 C 63 % 1014,6 hPa 0,0 l/m 2 min 0 min 0,0 UV-I 289 W/m 14,2 km/h (3 Bft)
21.08.2014 18:16 18,4 C 16,1 C 65 % 1014,6 hPa 0,0 l/m 2 min 0 min 0,0 UV-I 281 W/m 14,2 km/h (3 Bft)
21.08.2014 18:18 18,5 C 16,1 C 64 % 1014,6 hPa 0,0 l/m 2 min 0 min 0,0 UV-I 273 W/m 17,7 km/h (3 Bft)
21.08.2014 18:20 18,5 C 16,1 C 64 % 1014,7 hPa 0,0 l/m 2 min 0 min 0,0 UV-I 266 W/m 14,2 km/h (3 Bft)
21.08.2014 18:22 18,4 C 16,1 C 63 % 1014,6 hPa 0,0 l/m 2 min 0 min 0,0 UV-I 263 W/m 10,7 km/h (2 Bft)
21.08.2014 18:24 18,4 C 16,1 C 62 % 1014,6 hPa 0,0 l/m 2 min 0 min 0,0 UV-I 258 W/m 21,3 km/h (4 Bft)
21.08.2014 18:26 18,3 C 16,1 C 62 % 1014,5 hPa 0,0 l/m 2 min 0 min 0,0 UV-I 252 W/m 0,0 km/h (0 Bft)
21.08.2014 18:28 18,4 C 16,1 C 65 % 1014,5 hPa 0,0 l/m 2 min 0 min 0,0 UV-I 245 W/m 7,1 km/h (2 Bft)
21.08.2014 18:30 18,4 C 16,1 C 64 % 1014,5 hPa 0,0 l/m 2 min 0 min 0,0 UV-I 242 W/m 14,2 km/h (3 Bft)
21.08.2014 18:32 18,3 C 16,1 C 63 % 1014,5 hPa 0,0 l/m 2 min 0 min 0,0 UV-I 239 W/m 21,3 km/h (4 Bft)
21.08.2014 18:34 18,3 C 16,1 C 62 % 1014,5 hPa 0,0 l/m 2 min 0 min 0,0 UV-I 233 W/m 17,7 km/h (3 Bft)
21.08.2014 18:36 18,2 C 16,1 C 61 % 1014,6 hPa 0,0 l/m 2 min 0 min 0,0 UV-I 208 W/m 17,7 km/h (3 Bft)
21.08.2014 18:38 18,1 C 16,1 C 62 % 1014,5 hPa 0,0 l/m 2 min 0 min 0,0 UV-I 226 W/m 17,7 km/h (3 Bft)
21.08.2014 18:40 18,1 C 16,1 C 63 % 1014,4 hPa 0,0 l/m 2 min 0 min 0,0 UV-I 213 W/m 10,7 km/h (2 Bft)
21.08.2014 18:42 18,1 C 16,1 C 65 % 1014,4 hPa 0,0 l/m 2 min 0 min 0,0 UV-I 186 W/m 17,7 km/h (3 Bft)
21.08.2014 18:44 18,1 C 15,6 C 65 % 1014,4 hPa 0,0 l/m 2 min 0 min 0,0 UV-I 229 W/m 17,7 km/h (3 Bft)
21.08.2014 18:46 18,1 C 15,6 C 65 % 1014,4 hPa 0,0 l/m 2 min 0 min 0,0 UV-I 214 W/m 14,2 km/h (3 Bft)
21.08.2014 18:48 18,1 C 15,6 C 65 % 1014,3 hPa 0,0 l/m 2 min 0 min 0,0 UV-I 199 W/m 14,2 km/h (3 Bft)
21.08.2014 18:50 18,1 C 15,6 C 65 % 1014,5 hPa 0,0 l/m 0 min 0 min 0,0 UV-I 118 W/m 14,2 km/h (3 Bft)
21.08.2014 18:52 17,9 C 15,6 C 64 % 1014,4 hPa 0,0 l/m 0 min 0 min 0,0 UV-I 83 W/m 10,7 km/h (2 Bft)
21.08.2014 18:54 17,8 C 15,6 C 65 % 1014,3 hPa 0,0 l/m 0 min 0 min 0,0 UV-I 82 W/m 7,1 km/h (2 Bft)
21.08.2014 18:56 17,7 C 15,6 C 66 % 1014,3 hPa 0,0 l/m 0 min 0 min 0,0 UV-I 87 W/m 14,2 km/h (3 Bft)
21.08.2014 18:58 17,6 C 15,6 C 66 % 1014,3 hPa 0,0 l/m 0 min 0 min 0,0 UV-I 88 W/m 14,2 km/h (3 Bft)
21.08.2014 19:00 17,4 C 15,6 C 66 % 1014,4 hPa 0,0 l/m 0 min 0 min 0,0 UV-I 86 W/m 10,7 km/h (2 Bft)
21.08.2014 19:02 17,3 C 15,6 C 67 % 1014,3 hPa 0,0 l/m 0 min 0 min 0,0 UV-I 81 W/m 10,7 km/h (2 Bft)
21.08.2014 19:04 17,3 C 15,0 C 68 % 1014,4 hPa 0,0 l/m 0 min 0 min 0,0 UV-I 74 W/m 0,0 km/h (0 Bft)
21.08.2014 19:06 17,2 C 15,0 C 69 % 1014,4 hPa 0,0 l/m 0 min 0 min 0,0 UV-I 66 W/m 0,0 km/h (0 Bft)
21.08.2014 19:08 17,1 C 15,0 C 69 % 1014,3 hPa 0,0 l/m 0 min 0 min 0,0 UV-I 56 W/m 0,0 km/h (0 Bft)
21.08.2014 19:10 17,1 C 15,0 C 68 % 1014,2 hPa 0,0 l/m 0 min 0 min 0,0 UV-I 50 W/m 0,0 km/h (0 Bft)
21.08.2014 19:12 17,0 C 15,0 C 70 % 1014,2 hPa 0,0 l/m 0 min 0 min 0,0 UV-I 46 W/m 0,0 km/h (0 Bft)
21.08.2014 19:14 16,9 C 15,0 C 69 % 1014,2 hPa 0,0 l/m 0 min 0 min 0,0 UV-I 41 W/m 0,0 km/h (0 Bft)
21.08.2014 19:16 16,9 C 15,0 C 69 % 1014,2 hPa 0,0 l/m 0 min 0 min 0,0 UV-I 36 W/m 0,0 km/h (0 Bft)
21.08.2014 19:18 16,9 C 15,0 C 69 % 1014,2 hPa 0,0 l/m 0 min 0 min 0,0 UV-I 30 W/m 0,0 km/h (0 Bft)
21.08.2014 19:20 16,9 C 15,0 C 69 % 1014,2 hPa 0,0 l/m 0 min 0 min 0,0 UV-I 26 W/m 0,0 km/h (0 Bft)
21.08.2014 19:22 16,8 C 15,0 C 69 % 1014,2 hPa 0,0 l/m 0 min 0 min 0,0 UV-I 24 W/m 0,0 km/h (0 Bft)
21.08.2014 19:24 16,8 C 14,4 C 70 % 1014,2 hPa 0,0 l/m 0 min 0 min 0,0 UV-I 20 W/m 3,5 km/h (1 Bft)
21.08.2014 19:26 16,7 C 14,4 C 70 % 1014,2 hPa 0,0 l/m 0 min 0 min 0,0 UV-I 16 W/m 0,0 km/h (0 Bft)
21.08.2014 19:28 16,7 C 14,4 C 71 % 1014,3 hPa 0,0 l/m 0 min 0 min 0,0 UV-I 17 W/m 0,0 km/h (0 Bft)
21.08.2014 19:30 16,6 C 14,4 C 71 % 1014,2 hPa 0,0 l/m 0 min 0 min 0,0 UV-I 19 W/m 3,5 km/h (1 Bft)
21.08.2014 19:32 16,6 C 14,4 C 70 % 1014,1 hPa 0,0 l/m 0 min 0 min 0,0 UV-I 21 W/m 0,0 km/h (0 Bft)
21.08.2014 19:34 16,6 C 14,4 C 70 % 1014,2 hPa 0,0 l/m 0 min 0 min 0,0 UV-I 21 W/m 0,0 km/h (0 Bft)
21.08.2014 19:36 16,6 C 14,4 C 71 % 1014,1 hPa 0,0 l/m 0 min 0 min 0,0 UV-I 19 W/m 0,0 km/h (0 Bft)
21.08.2014 19:38 16,6 C 14,4 C 70 % 1014,2 hPa 0,0 l/m 0 min 0 min 0,0 UV-I 18 W/m 0,0 km/h (0 Bft)
21.08.2014 19:40 16,6 C 14,4 C 71 % 1014,1 hPa 0,0 l/m 0 min 0 min 0,0 UV-I 17 W/m 0,0 km/h (0 Bft)
21.08.2014 19:42 16,6 C 14,4 C 70 % 1014,1 hPa 0,0 l/m 0 min 0 min 0,0 UV-I 16 W/m 0,0 km/h (0 Bft)
21.08.2014 19:44 16,6 C 14,4 C 69 % 1014,2 hPa 0,0 l/m 0 min 0 min 0,0 UV-I 16 W/m 0,0 km/h (0 Bft)
21.08.2014 19:46 16,6 C 14,4 C 70 % 1014,1 hPa 0,0 l/m 0 min 0 min 0,0 UV-I 17 W/m 0,0 km/h (0 Bft)
21.08.2014 19:48 16,6 C 14,4 C 69 % 1014,2 hPa 0,0 l/m 0 min 0 min 0,0 UV-I 18 W/m 0,0 km/h (0 Bft)
21.08.2014 19:50 16,6 C 14,4 C 70 % 1014,1 hPa 0,0 l/m 0 min 0 min 0,0 UV-I 18 W/m 3,5 km/h (1 Bft)
21.08.2014 19:52 16,6 C 14,4 C 70 % 1014,1 hPa 0,0 l/m 0 min 0 min 0,0 UV-I 19 W/m 10,7 km/h (2 Bft)
21.08.2014 19:54 16,5 C 14,4 C 70 % 1014,1 hPa 0,0 l/m 0 min 0 min 0,0 UV-I 21 W/m 0,0 km/h (0 Bft)
21.08.2014 19:56 16,6 C 14,4 C 71 % 1014,1 hPa 0,0 l/m 0 min 0 min 0,0 UV-I 21 W/m 10,7 km/h (2 Bft)
21.08.2014 19:58 16,6 C 14,4 C 70 % 1014,1 hPa 0,0 l/m 0 min 0 min 0,0 UV-I 23 W/m 10,7 km/h (2 Bft)
21.08.2014 20:00 16,5 C 14,4 C 71 % 1014,1 hPa 0,0 l/m 0 min 0 min 0,0 UV-I 23 W/m 7,1 km/h (2 Bft)
21.08.2014 20:02 16,4 C 14,4 C 72 % 1014,1 hPa 0,0 l/m 0 min 0 min 0,0 UV-I 21 W/m 0,0 km/h (0 Bft)
21.08.2014 20:04 16,4 C 14,4 C 72 % 1014,1 hPa 0,0 l/m 0 min 0 min 0,0 UV-I 21 W/m 17,7 km/h (3 Bft)
21.08.2014 20:06 16,3 C 14,4 C 72 % 1014,2 hPa 0,0 l/m 0 min 0 min 0,0 UV-I 20 W/m 17,7 km/h (3 Bft)
21.08.2014 20:08 16,3 C 14,4 C 72 % 1014,1 hPa 0,0 l/m 0 min 0 min 0,0 UV-I 18 W/m 14,2 km/h (3 Bft)
21.08.2014 20:10 16,3 C 14,4 C 72 % 1014,2 hPa 0,0 l/m 0 min 0 min 0,0 UV-I 17 W/m 24,7 km/h (4 Bft)
21.08.2014 20:12 16,3 C 14,4 C 71 % 1014,2 hPa 0,0 l/m 0 min 0 min 0,0 UV-I 15 W/m 21,3 km/h (4 Bft)
21.08.2014 20:14 16,3 C 14,4 C 72 % 1014,2 hPa 0,0 l/m 0 min 0 min 0,0 UV-I 12 W/m 17,7 km/h (3 Bft)
21.08.2014 20:16 16,3 C 14,4 C 72 % 1014,3 hPa 0,0 l/m 0 min 0 min 0,0 UV-I 12 W/m 17,7 km/h (3 Bft)
21.08.2014 20:18 16,3 C 14,4 C 72 % 1014,3 hPa 0,0 l/m 0 min 0 min 0,0 UV-I 12 W/m 14,2 km/h (3 Bft)
21.08.2014 20:20 16,2 C 14,4 C 72 % 1014,2 hPa 0,0 l/m 0 min 0 min 0,0 UV-I 11 W/m 17,7 km/h (3 Bft)
21.08.2014 20:22 16,2 C 14,4 C 72 % 1014,1 hPa 0,0 l/m 0 min 0 min 0,0 UV-I 11 W/m 17,7 km/h (3 Bft)
21.08.2014 20:24 16,2 C 14,4 C 72 % 1014,2 hPa 0,0 l/m 0 min 0 min 0,0 UV-I 11 W/m 14,2 km/h (3 Bft)
21.08.2014 20:26 16,2 C 14,4 C 73 % 1014,2 hPa 0,0 l/m 0 min 0 min 0,0 UV-I 9 W/m 14,2 km/h (3 Bft)
21.08.2014 20:28 16,1 C 14,4 C 73 % 1014,2 hPa 0,0 l/m 0 min 0 min 0,0 UV-I 8 W/m 14,2 km/h (3 Bft)
21.08.2014 20:30 16,1 C 13,9 C 73 % 1014,2 hPa 0,0 l/m 0 min 0 min 0,0 UV-I 6 W/m 0,0 km/h (0 Bft)
21.08.2014 20:32 16,0 C 13,9 C 72 % 1014,2 hPa 0,0 l/m 0 min 0 min 0,0 UV-I 5 W/m 21,3 km/h (4 Bft)
21.08.2014 20:34 15,9 C 13,9 C 72 % 1014,3 hPa 0,0 l/m 0 min 0 min 0,0 UV-I 5 W/m 0,0 km/h (0 Bft)
21.08.2014 20:36 15,9 C 13,9 C 72 % 1014,3 hPa 0,0 l/m 0 min 0 min 0,0 UV-I 5 W/m 10,7 km/h (2 Bft)
21.08.2014 20:38 15,9 C 13,9 C 72 % 1014,1 hPa 0,0 l/m 0 min 0 min 0,0 UV-I 3 W/m 10,7 km/h (2 Bft)
21.08.2014 20:40 15,9 C 13,9 C 72 % 1014,2 hPa 0,0 l/m 0 min 0 min 0,0 UV-I 0 W/m 0,0 km/h (0 Bft)
21.08.2014 20:42 15,9 C 13,9 C 72 % 1014,2 hPa 0,0 l/m 0 min 0 min 0,0 UV-I 0 W/m 10,7 km/h (2 Bft)
21.08.2014 20:44 15,9 C 13,9 C 72 % 1014,2 hPa 0,0 l/m 0 min 0 min 0,0 UV-I 0 W/m 10,7 km/h (2 Bft)
21.08.2014 20:46 15,8 C 13,9 C 72 % 1014,1 hPa 0,0 l/m 0 min 0 min 0,0 UV-I 0 W/m 24,7 km/h (4 Bft)
21.08.2014 20:48 15,8 C 13,9 C 72 % 1014,2 hPa 0,0 l/m 0 min 0 min 0,0 UV-I 0 W/m 17,7 km/h (3 Bft)
21.08.2014 20:50 15,7 C 13,9 C 72 % 1014,2 hPa 0,0 l/m 0 min 0 min 0,0 UV-I 0 W/m 14,2 km/h (3 Bft)
21.08.2014 20:52 15,7 C 13,9 C 73 % 1014,3 hPa 0,0 l/m 0 min 0 min 0,0 UV-I 0 W/m 17,7 km/h (3 Bft)
21.08.2014 20:54 15,7 C 13,9 C 73 % 1014,2 hPa 0,0 l/m 0 min 0 min 0,0 UV-I 0 W/m 0,0 km/h (0 Bft)
21.08.2014 20:56 15,6 C 13,9 C 73 % 1014,3 hPa 0,0 l/m 0 min 0 min 0,0 UV-I 0 W/m 31,7 km/h (5 Bft)
21.08.2014 20:58 15,6 C 13,9 C 72 % 1014,3 hPa 0,0 l/m 0 min 0 min 0,0 UV-I 0 W/m 28,2 km/h (4 Bft)
21.08.2014 21:00 15,5 C 13,9 C 72 % 1014,4 hPa 0,0 l/m 0 min 0 min 0,0 UV-I 0 W/m 24,7 km/h (4 Bft)
21.08.2014 21:02 15,4 C 13,9 C 72 % 1014,4 hPa 0,0 l/m 0 min 0 min 0,0 UV-I 0 W/m 28,2 km/h (4 Bft)
21.08.2014 21:04 15,4 C 13,9 C 71 % 1014,4 hPa 0,0 l/m 0 min 0 min 0,0 UV-I 0 W/m 21,3 km/h (4 Bft)
21.08.2014 21:06 15,4 C 13,9 C 71 % 1014,4 hPa 0,0 l/m 0 min 0 min 0,0 UV-I 0 W/m 17,7 km/h (3 Bft)
21.08.2014 21:08 15,3 C 13,9 C 71 % 1014,4 hPa 0,0 l/m 0 min 0 min 0,0 UV-I 0 W/m 28,2 km/h (4 Bft)
21.08.2014 21:10 15,3 C 13,9 C 71 % 1014,4 hPa 0,0 l/m 0 min 0 min 0,0 UV-I 0 W/m 24,7 km/h (4 Bft)
21.08.2014 21:12 15,3 C 13,3 C 71 % 1014,4 hPa 0,0 l/m 0 min 0 min 0,0 UV-I 0 W/m 21,3 km/h (4 Bft)
21.08.2014 21:14 15,3 C 13,3 C 71 % 1014,4 hPa 0,0 l/m 0 min 0 min 0,0 UV-I 0 W/m 17,7 km/h (3 Bft)
21.08.2014 21:16 15,2 C 13,3 C 71 % 1014,4 hPa 0,0 l/m 0 min 0 min 0,0 UV-I 0 W/m 17,7 km/h (3 Bft)
21.08.2014 21:18 15,2 C 13,3 C 71 % 1014,4 hPa 0,0 l/m 0 min 0 min 0,0 UV-I 0 W/m 21,3 km/h (4 Bft)
21.08.2014 21:20 15,2 C 13,3 C 71 % 1014,4 hPa 0,0 l/m 0 min 0 min 0,0 UV-I 0 W/m 21,3 km/h (4 Bft)
21.08.2014 21:22 15,2 C 13,3 C 71 % 1014,4 hPa 0,0 l/m 0 min 0 min 0,0 UV-I 0 W/m 24,7 km/h (4 Bft)
21.08.2014 21:24 15,2 C 13,3 C 70 % 1014,4 hPa 0,0 l/m 0 min 0 min 0,0 UV-I 0 W/m 21,3 km/h (4 Bft)
21.08.2014 21:26 15,2 C 13,3 C 70 % 1014,4 hPa 0,0 l/m 0 min 0 min 0,0 UV-I 0 W/m 17,7 km/h (3 Bft)
21.08.2014 21:28 15,1 C 13,3 C 70 % 1014,4 hPa 0,0 l/m 0 min 0 min 0,0 UV-I 0 W/m 21,3 km/h (4 Bft)
21.08.2014 21:30 15,1 C 13,3 C 71 % 1014,5 hPa 0,0 l/m 0 min 0 min 0,0 UV-I 0 W/m 17,7 km/h (3 Bft)
21.08.2014 21:32 15,1 C 13,3 C 71 % 1014,5 hPa 0,0 l/m 0 min 0 min 0,0 UV-I 0 W/m 17,7 km/h (3 Bft)
21.08.2014 21:34 15,1 C 13,3 C 72 % 1014,5 hPa 0,0 l/m 0 min 0 min 0,0 UV-I 0 W/m 14,2 km/h (3 Bft)
21.08.2014 21:36 15,0 C 13,3 C 72 % 1014,5 hPa 0,0 l/m 0 min 0 min 0,0 UV-I 0 W/m 24,7 km/h (4 Bft)
21.08.2014 21:38 15,0 C 13,3 C 71 % 1014,5 hPa 0,0 l/m 0 min 0 min 0,0 UV-I 0 W/m 24,7 km/h (4 Bft)
21.08.2014 21:40 14,9 C 13,3 C 71 % 1014,5 hPa 0,0 l/m 0 min 0 min 0,0 UV-I 0 W/m 17,7 km/h (3 Bft)
21.08.2014 21:42 14,9 C 13,3 C 71 % 1014,5 hPa 0,0 l/m 0 min 0 min 0,0 UV-I 0 W/m 21,3 km/h (4 Bft)
21.08.2014 21:44 14,9 C 13,3 C 72 % 1014,5 hPa 0,0 l/m 0 min 0 min 0,0 UV-I 0 W/m 14,2 km/h (3 Bft)
21.08.2014 21:46 14,9 C 13,3 C 72 % 1014,5 hPa 0,0 l/m 0 min 0 min 0,0 UV-I 0 W/m 21,3 km/h (4 Bft)
21.08.2014 21:48 14,9 C 13,3 C 72 % 1014,5 hPa 0,0 l/m 0 min 0 min 0,0 UV-I 0 W/m 21,3 km/h (4 Bft)
21.08.2014 21:50 14,9 C 13,3 C 72 % 1014,4 hPa 0,0 l/m 0 min 0 min 0,0 UV-I 0 W/m 21,3 km/h (4 Bft)
21.08.2014 21:52 14,9 C 13,3 C 72 % 1014,4 hPa 0,0 l/m 0 min 0 min 0,0 UV-I 0 W/m 17,7 km/h (3 Bft)
21.08.2014 21:54 14,9 C 13,3 C 72 % 1014,4 hPa 0,0 l/m 0 min 0 min 0,0 UV-I 0 W/m 24,7 km/h (4 Bft)
21.08.2014 21:56 14,9 C 13,3 C 72 % 1014,4 hPa 0,0 l/m 0 min 0 min 0,0 UV-I 0 W/m 21,3 km/h (4 Bft)
21.08.2014 21:58 14,9 C 13,3 C 72 % 1014,5 hPa 0,0 l/m 0 min 0 min 0,0 UV-I 0 W/m 24,7 km/h (4 Bft)
21.08.2014 22:00 14,9 C 13,3 C 72 % 1014,4 hPa 0,0 l/m 0 min 0 min 0,0 UV-I 0 W/m 28,2 km/h (4 Bft)
21.08.2014 22:02 14,9 C 13,3 C 72 % 1014,5 hPa 0,0 l/m 0 min 0 min 0,0 UV-I 0 W/m 21,3 km/h (4 Bft)
21.08.2014 22:04 14,9 C 13,3 C 72 % 1014,4 hPa 0,0 l/m 0 min 0 min 0,0 UV-I 0 W/m 21,3 km/h (4 Bft)
21.08.2014 22:06 14,9 C 13,3 C 72 % 1014,4 hPa 0,0 l/m 0 min 0 min 0,0 UV-I 0 W/m 21,3 km/h (4 Bft)
21.08.2014 22:08 14,9 C 13,3 C 72 % 1014,4 hPa 0,0 l/m 0 min 0 min 0,0 UV-I 0 W/m 21,3 km/h (4 Bft)
21.08.2014 22:10 14,9 C 13,3 C 73 % 1014,4 hPa 0,0 l/m 0 min 0 min 0,0 UV-I 0 W/m 17,7 km/h (3 Bft)
21.08.2014 22:12 14,8 C 13,3 C 73 % 1014,5 hPa 0,0 l/m 0 min 0 min 0,0 UV-I 0 W/m 21,3 km/h (4 Bft)
21.08.2014 22:14 14,8 C 13,3 C 73 % 1014,5 hPa 0,0 l/m 0 min 0 min 0,0 UV-I 0 W/m 17,7 km/h (3 Bft)
21.08.2014 22:16 14,8 C 13,3 C 73 % 1014,5 hPa 0,0 l/m 0 min 0 min 0,0 UV-I 0 W/m 24,7 km/h (4 Bft)
21.08.2014 22:18 14,8 C 13,3 C 73 % 1014,5 hPa 0,0 l/m 0 min 0 min 0,0 UV-I 0 W/m 21,3 km/h (4 Bft)
21.08.2014 22:20 14,8 C 13,3 C 73 % 1014,5 hPa 0,0 l/m 0 min 0 min 0,0 UV-I 0 W/m 17,7 km/h (3 Bft)
21.08.2014 22:22 14,8 C 13,3 C 73 % 1014,5 hPa 0,0 l/m 0 min 0 min 0,0 UV-I 0 W/m 24,7 km/h (4 Bft)
21.08.2014 22:24 14,8 C 13,3 C 74 % 1014,5 hPa 0,0 l/m 0 min 0 min 0,0 UV-I 0 W/m 14,2 km/h (3 Bft)
21.08.2014 22:26 14,7 C 13,3 C 74 % 1014,5 hPa 0,0 l/m 0 min 0 min 0,0 UV-I 0 W/m 21,3 km/h (4 Bft)
21.08.2014 22:28 14,7 C 13,3 C 74 % 1014,6 hPa 0,0 l/m 0 min 0 min 0,0 UV-I 0 W/m 17,7 km/h (3 Bft)
21.08.2014 22:30 14,7 C 13,3 C 74 % 1014,5 hPa 0,0 l/m 0 min 0 min 0,0 UV-I 0 W/m 28,2 km/h (4 Bft)
21.08.2014 22:32 14,7 C 13,3 C 74 % 1014,5 hPa 0,0 l/m 0 min 0 min 0,0 UV-I 0 W/m 17,7 km/h (3 Bft)
21.08.2014 22:34 14,7 C 13,3 C 74 % 1014,5 hPa 0,0 l/m 0 min 0 min 0,0 UV-I 0 W/m 7,1 km/h (2 Bft)
21.08.2014 22:36 14,7 C 13,3 C 74 % 1014,5 hPa 0,0 l/m 0 min 0 min 0,0 UV-I 0 W/m 28,2 km/h (4 Bft)
21.08.2014 22:38 14,7 C 13,3 C 74 % 1014,5 hPa 0,0 l/m 0 min 0 min 0,0 UV-I 0 W/m 21,3 km/h (4 Bft)
21.08.2014 22:40 14,7 C 13,3 C 74 % 1014,5 hPa 0,0 l/m 0 min 0 min 0,0 UV-I 0 W/m 21,3 km/h (4 Bft)
21.08.2014 22:42 14,7 C 13,3 C 74 % 1014,5 hPa 0,0 l/m 0 min 0 min 0,0 UV-I 0 W/m 17,7 km/h (3 Bft)
21.08.2014 22:44 14,7 C 13,3 C 75 % 1014,6 hPa 0,0 l/m 0 min 0 min 0,0 UV-I 0 W/m 21,3 km/h (4 Bft)
21.08.2014 22:46 14,7 C 13,3 C 75 % 1014,6 hPa 0,0 l/m 0 min 0 min 0,0 UV-I 0 W/m 14,2 km/h (3 Bft)
21.08.2014 22:48 14,7 C 13,3 C 75 % 1014,6 hPa 0,0 l/m 0 min 0 min 0,0 UV-I 0 W/m 28,2 km/h (4 Bft)
21.08.2014 22:50 14,7 C 13,3 C 75 % 1014,6 hPa 0,0 l/m 0 min 0 min 0,0 UV-I 0 W/m 31,7 km/h (5 Bft)
21.08.2014 22:52 14,7 C 13,3 C 75 % 1014,6 hPa 0,0 l/m 0 min 0 min 0,0 UV-I 0 W/m 21,3 km/h (4 Bft)
21.08.2014 22:54 14,7 C 12,8 C 75 % 1014,5 hPa 0,0 l/m 0 min 0 min 0,0 UV-I 0 W/m 14,2 km/h (3 Bft)
21.08.2014 22:56 14,6 C 12,8 C 75 % 1014,5 hPa 0,0 l/m 0 min 0 min 0,0 UV-I 0 W/m 21,3 km/h (4 Bft)
21.08.2014 22:58 14,6 C 12,8 C 75 % 1014,5 hPa 0,0 l/m 0 min 0 min 0,0 UV-I 0 W/m 28,2 km/h (4 Bft)
21.08.2014 23:00 14,5 C 12,8 C 76 % 1014,5 hPa 0,0 l/m 0 min 0 min 0,0 UV-I 0 W/m 17,7 km/h (3 Bft)
21.08.2014 23:02 14,6 C 12,8 C 76 % 1014,4 hPa 0,0 l/m 0 min 0 min 0,0 UV-I 0 W/m 17,7 km/h (3 Bft)
21.08.2014 23:04 14,5 C 12,8 C 76 % 1014,5 hPa 0,0 l/m 0 min 0 min 0,0 UV-I 0 W/m 24,7 km/h (4 Bft)
21.08.2014 23:06 14,5 C 12,8 C 76 % 1014,5 hPa 0,0 l/m 0 min 0 min 0,0 UV-I 0 W/m 21,3 km/h (4 Bft)
21.08.2014 23:08 14,4 C 12,8 C 76 % 1014,4 hPa 0,0 l/m 0 min 0 min 0,0 UV-I 0 W/m 17,7 km/h (3 Bft)
21.08.2014 23:10 14,4 C 12,8 C 76 % 1014,5 hPa 0,0 l/m 0 min 0 min 0,0 UV-I 0 W/m 17,7 km/h (3 Bft)
21.08.2014 23:12 14,3 C 12,8 C 76 % 1014,4 hPa 0,0 l/m 0 min 0 min 0,0 UV-I 0 W/m 21,3 km/h (4 Bft)
21.08.2014 23:14 14,2 C 12,8 C 77 % 1014,4 hPa 0,0 l/m 0 min 0 min 0,0 UV-I 0 W/m 17,7 km/h (3 Bft)
21.08.2014 23:16 14,2 C 12,8 C 77 % 1014,4 hPa 0,0 l/m 0 min 0 min 0,0 UV-I 0 W/m 10,7 km/h (2 Bft)
21.08.2014 23:18 14,2 C 12,8 C 77 % 1014,4 hPa 0,0 l/m 0 min 0 min 0,0 UV-I 0 W/m 17,7 km/h (3 Bft)
21.08.2014 23:20 14,2 C 12,8 C 77 % 1014,4 hPa 0,0 l/m 0 min 0 min 0,0 UV-I 0 W/m 21,3 km/h (4 Bft)
21.08.2014 23:22 14,2 C 12,2 C 77 % 1014,4 hPa 0,0 l/m 0 min 0 min 0,0 UV-I 0 W/m 21,3 km/h (4 Bft)
21.08.2014 23:24 14,2 C 12,2 C 77 % 1014,4 hPa 0,0 l/m 0 min 0 min 0,0 UV-I 0 W/m 21,3 km/h (4 Bft)
21.08.2014 23:26 14,2 C 12,2 C 77 % 1014,4 hPa 0,0 l/m 0 min 0 min 0,0 UV-I 0 W/m 24,7 km/h (4 Bft)
21.08.2014 23:28 14,2 C 12,2 C 77 % 1014,4 hPa 0,0 l/m 0 min 0 min 0,0 UV-I 0 W/m 24,7 km/h (4 Bft)
21.08.2014 23:30 14,1 C 12,2 C 77 % 1014,4 hPa 0,0 l/m 0 min 0 min 0,0 UV-I 0 W/m 17,7 km/h (3 Bft)
21.08.2014 23:32 14,1 C 12,2 C 78 % 1014,4 hPa 0,0 l/m 0 min 0 min 0,0 UV-I 0 W/m 10,7 km/h (2 Bft)
21.08.2014 23:34 14,0 C 12,2 C 78 % 1014,4 hPa 0,0 l/m 0 min 0 min 0,0 UV-I 0 W/m 3,5 km/h (1 Bft)
21.08.2014 23:36 13,9 C 12,2 C 78 % 1014,3 hPa 0,0 l/m 0 min 0 min 0,0 UV-I 0 W/m 3,5 km/h (1 Bft)
21.08.2014 23:38 13,9 C 12,2 C 78 % 1014,3 hPa 0,0 l/m 0 min 0 min 0,0 UV-I 0 W/m 7,1 km/h (2 Bft)
21.08.2014 23:40 13,8 C 12,2 C 78 % 1014,3 hPa 0,0 l/m 0 min 0 min 0,0 UV-I 0 W/m 10,7 km/h (2 Bft)
21.08.2014 23:42 13,7 C 12,2 C 79 % 1014,3 hPa 0,0 l/m 0 min 0 min 0,0 UV-I 0 W/m 0,0 km/h (0 Bft)
21.08.2014 23:44 13,7 C 11,7 C 79 % 1014,3 hPa 0,0 l/m 0 min 0 min 0,0 UV-I 0 W/m 17,7 km/h (3 Bft)
21.08.2014 23:46 13,7 C 12,2 C 79 % 1014,3 hPa 0,0 l/m 0 min 0 min 0,0 UV-I 0 W/m 14,2 km/h (3 Bft)
21.08.2014 23:48 13,7 C 12,2 C 79 % 1014,3 hPa 0,0 l/m 0 min 0 min 0,0 UV-I 0 W/m 21,3 km/h (4 Bft)
21.08.2014 23:50 13,7 C 12,2 C 79 % 1014,3 hPa 0,0 l/m 0 min 0 min 0,0 UV-I 0 W/m 21,3 km/h (4 Bft)
21.08.2014 23:52 13,7 C 12,2 C 79 % 1014,3 hPa 0,0 l/m 0 min 0 min 0,0 UV-I 0 W/m 17,7 km/h (3 Bft)
21.08.2014 23:54 13,7 C 12,2 C 79 % 1014,2 hPa 0,0 l/m 0 min 0 min 0,0 UV-I 0 W/m 0,0 km/h (0 Bft)
21.08.2014 23:56 13,7 C 12,2 C 79 % 1014,3 hPa 0,0 l/m 0 min 0 min 0,0 UV-I 0 W/m 17,7 km/h (3 Bft)
21.08.2014 23:58 13,6 C 11,7 C 79 % 1014,3 hPa 0,0 l/m 0 min 0 min 0,0 UV-I 0 W/m 7,1 km/h (2 Bft)
_ Min-Zeit 05:30 03:02 16:54 19:32 - - - - - 00:00
Minimum _ 8,5 C 7,2 C 58 % 1014,1 hPa - - - - - 0,0 km/h (0 Bft)
_ Max-Zeit 00:00 16:36 01:56 09:58 01:20 06:42 00:00 13:44 13:56 12:26
Maximum _ 21,0 C 21,1 C 99 % 1016,9 hPa 0,2 l/m 2 min 0 min 3,8 UV-I 868 W/m 49,5 km/h
W (6 Bft)
Durchschnitt _ 13,6 C 12,5 C 82 % 1015,7 hPa #0,2 l/m #8:02 h #0 min. 1,8 UV-I 301 W/m 15,6 km/h (3 Bft)
© 2014 W. Hausmann